Observation data for Panhandle on 04/16/2021      Previous  Date  Next       Current Mesonet Observations  Soil Data  Daily Summary Page  Observations in Plain Language
KPA1 160500Z 12012KT 05/05 A299 RMK A01 T00460046  RH  100%=      5-min Rain = 0
KPA1 160501Z 12012KT 05/05 A299 RMK A01 T00460046  RH  100%=      5-min Rain = 0
KPA1 160502Z 12011KT 05/05 A299 RMK A01 T00460046  RH  100%=      5-min Rain = 0
KPA1 160503Z 11010KT 05/05 A299 RMK A01 T00460046  RH  100%=      5-min Rain = 0
KPA1 160504Z 11009KT 05/05 A299 RMK A01 T00460046  RH  100%=      5-min Rain = 0
KPA1 160505Z 11010KT 05/05 A299 RMK A01 T00460046  RH  100%=      5-min Rain = 0
KPA1 160506Z 11010KT 05/05 A299 RMK A01 T00460046  RH  100%=      5-min Rain = 0
KPA1 160507Z 11012KT 05/05 A299 RMK A01 T00460046  RH  100%=      5-min Rain = 0
KPA1 160508Z 12011KT 05/05 A299 RMK A01 T00460046  RH  100%=      5-min Rain = 0
KPA1 160509Z 11012KT 05/05 A299 RMK A01 T00460046  RH  100%=      5-min Rain = 0
KPA1 160510Z 11012KT 05/05 A299 RMK A01 T00460046  RH  100%=      5-min Rain = 0
KPA1 160511Z 11011KT 05/05 A299 RMK A01 T00460046  RH  100%=      5-min Rain = 0
KPA1 160512Z 11013KT 05/05 A299 RMK A01 T00460046  RH  100%=      5-min Rain = 0
KPA1 160513Z 11010KT 05/05 A2991 RMK A01 T00460046  RH  100%=      5-min Rain = 0
KPA1 160514Z 10010KT 05/05 A2991 RMK A01 T00460046  RH  100%=      5-min Rain = 0
KPA1 160515Z 11008KT 05/05 A2991 RMK A01 T00460046  RH  100%=      5-min Rain = 0
KPA1 160516Z 11008KT 05/05 A2991 RMK A01 T00460046  RH  100%=      5-min Rain = 0
KPA1 160517Z 11008KT 05/05 A2991 RMK A01 T00470047  RH  100%=      5-min Rain = 0
KPA1 160518Z 11009KT 05/05 A2991 RMK A01 T00470047  RH  100%=      5-min Rain = 0
KPA1 160519Z 11008KT 05/05 A299 RMK A01 T00470047  RH  100%=      5-min Rain = 0
KPA1 160520Z 11008KT 05/05 A299 RMK A01 T00470047  RH  100%=      5-min Rain = 0
KPA1 160521Z 11010KT 05/05 A299 RMK A01 T00470047  RH  100%=      5-min Rain = 0
KPA1 160522Z 11011KT 05/05 A299 RMK A01 T00470047  RH  100%=      5-min Rain = 0
KPA1 160523Z 11012KT 05/05 A2991 RMK A01 T00460046  RH  100%=      5-min Rain = 0
KPA1 160524Z 10011KT 05/05 A2991 RMK A01 T00460046  RH  100%=      5-min Rain = 0
KPA1 160525Z 11011KT 05/05 A2991 RMK A01 T00460046  RH  100%=      5-min Rain = 0
KPA1 160526Z 11010KT 05/05 A2991 RMK A01 T00460046  RH  100%=      5-min Rain = 0
KPA1 160527Z 11010KT 05/05 A299 RMK A01 T00460046  RH  100%=      5-min Rain = 0
KPA1 160528Z 11012KT 05/05 A2991 RMK A01 T00460046  RH  100%=      5-min Rain = 0
KPA1 160529Z 11011KT 05/05 A2991 RMK A01 T00470047  RH  100%=      5-min Rain = 0
KPA1 160530Z 11010KT 05/05 A2991 RMK A01 T00460046  RH  100%=      5-min Rain = 0
KPA1 160531Z 11011KT 05/05 A2991 RMK A01 T00460046  RH  100%=      5-min Rain = 0
KPA1 160532Z 12010KT 05/05 A2991 RMK A01 T00470047  RH  100%=      5-min Rain = 0
KPA1 160533Z 12011KT 05/05 A2991 RMK A01 T00460046  RH  100%=      5-min Rain = 0
KPA1 160534Z 12010KT 05/05 A2991 RMK A01 T00470047  RH  100%=      5-min Rain = 0
KPA1 160535Z 11008KT 05/05 A2991 RMK A01 T00460046  RH  100%=      5-min Rain = 0
KPA1 160536Z 11009KT 05/05 A2991 RMK A01 T00470047  RH  100%=      5-min Rain = 0
KPA1 160537Z 11010KT 05/05 A2991 RMK A01 T00460046  RH  100%=      5-min Rain = 0
KPA1 160538Z 11010KT 05/05 A2991 RMK A01 T00460046  RH  100%=      5-min Rain = 0
KPA1 160539Z 11009KT 05/05 A2991 RMK A01 T00460046  RH  100%=      5-min Rain = 0
KPA1 160540Z 10008KT 05/05 A2991 RMK A01 T00460046  RH  100%=      5-min Rain = 0
KPA1 160541Z 10008KT 05/05 A2991 RMK A01 T00460046  RH  100%=      5-min Rain = 0
KPA1 160542Z 10008KT 05/05 A2991 RMK A01 T00470047  RH  100%=      5-min Rain = 0
KPA1 160543Z 10008KT 05/05 A2991 RMK A01 T00460046  RH  100%=      5-min Rain = 0
KPA1 160544Z 10009KT 05/05 A2991 RMK A01 T00460046  RH  100%=      5-min Rain = 0
KPA1 160545Z 10007KT 05/05 A2991 RMK A01 T00470047  RH  100%=      5-min Rain = 0
KPA1 160546Z 10007KT 05/05 A2991 RMK A01 T00470047  RH  100%=      5-min Rain = 0
KPA1 160547Z 09007KT 05/05 A2991 RMK A01 T00470047  RH  100%=      5-min Rain = 0
KPA1 160548Z 10008KT 05/05 A2991 RMK A01 T00470047  RH  100%=      5-min Rain = 0
KPA1 160549Z 11008KT 05/05 A2992 RMK A01 T00470047  RH  100%=      5-min Rain = 0
KPA1 160550Z 11007KT 05/05 A2992 RMK A01 T00470047  RH  100%=      5-min Rain = 0
KPA1 160551Z 11006KT 05/05 A2992 RMK A01 T00470047  RH  100%=      5-min Rain = 0
KPA1 160552Z 11007KT 05/05 A2992 RMK A01 T00470047  RH  100%=      5-min Rain = 0
KPA1 160553Z 11008KT 05/05 A2992 RMK A01 T00470047  RH  100%=      5-min Rain = 0
KPA1 160554Z 12006KT 05/05 A2992 RMK A01 T00470047  RH  100%=      5-min Rain = 0
KPA1 160555Z 10007KT 05/05 A2992 RMK A01 T00470047  RH  100%=      5-min Rain = 0
KPA1 160556Z 10007KT 05/05 A2992 RMK A01 T00470047  RH  100%=      5-min Rain = 0
KPA1 160557Z 09007KT 05/05 A2992 RMK A01 T00470047  RH  100%=      5-min Rain = 0
KPA1 160558Z 10007KT 05/05 A2992 RMK A01 T00470047  RH  100%=      5-min Rain = 0
KPA1 160559Z 12007KT 05/05 A2992 RMK A01 T00470047  RH  100%=      5-min Rain = 0
KPA1 160600Z 11008KT 05/05 A2992 RMK A01 T00470047  RH  100%=      5-min Rain = 0
KPA1 160601Z 11007KT 05/05 A2992 RMK A01 T00470047  RH  100%=      5-min Rain = 0
KPA1 160602Z 12007KT 05/05 A2992 RMK A01 T00470047  RH  100%=      5-min Rain = 0
KPA1 160603Z 11007KT 05/05 A2992 RMK A01 T00470047  RH  100%=      5-min Rain = 0
KPA1 160604Z 12005KT 05/05 A2993 RMK A01 T00470047  RH  100%=      5-min Rain = 0
KPA1 160605Z 12005KT 05/05 A2993 RMK A01 T00480048  RH  100%=      5-min Rain = 0
KPA1 160606Z 12006KT 05/05 A2993 RMK A01 T00480048  RH  100%=      5-min Rain = 0
KPA1 160607Z 12005KT 05/05 A2993 RMK A01 T00480048  RH  100%=      5-min Rain = 0
KPA1 160608Z 13003KT 05/05 A2993 RMK A01 T00480048  RH  100%=      5-min Rain = 0
KPA1 160609Z 10005KT 05/05 A2993 RMK A01 T00480048  RH  100%=      5-min Rain = 0
KPA1 160610Z 11005KT 05/05 A2993 RMK A01 T00480048  RH  100%=      5-min Rain = 0
KPA1 160611Z 12006KT 05/05 A2993 RMK A01 T00480048  RH  100%=      5-min Rain = 0
KPA1 160612Z 12006KT 05/05 A2993 RMK A01 T00480048  RH  100%=      5-min Rain = 0
KPA1 160613Z 12005KT 05/05 A2993 RMK A01 T00480048  RH  100%=      5-min Rain = 0
KPA1 160614Z 12004KT 05/05 A2993 RMK A01 T00480048  RH  100%=      5-min Rain = 0
KPA1 160615Z 12005KT 05/05 A2993 RMK A01 T00480048  RH  100%=      5-min Rain = 0
KPA1 160616Z 12005KT 05/05 A2993 RMK A01 T00480048  RH  100%=      5-min Rain = 0
KPA1 160617Z 12003KT 05/05 A2993 RMK A01 T00480048  RH  100%=      5-min Rain = 0
KPA1 160618Z 12004KT 05/05 A2993 RMK A01 T00480048  RH  100%=      5-min Rain = 0
KPA1 160619Z 12003KT 05/05 A2993 RMK A01 T00480048  RH  100%=      5-min Rain = 0.01
KPA1 160620Z 11003KT 05/05 A2993 RMK A01 T00480048  RH  100%=      5-min Rain = 0
KPA1 160621Z 11002KT 05/05 A2993 RMK A01 T00480048  RH  100%=      5-min Rain = 0
KPA1 160622Z 09003KT 05/05 A2994 RMK A01 T00480048  RH  100%=      5-min Rain = 0
KPA1 160623Z 07003KT 05/05 A2994 RMK A01 T00480048  RH  100%=      5-min Rain = 0
KPA1 160624Z 07002KT 05/05 A2994 RMK A01 T00480048  RH  100%=      5-min Rain = 0
KPA1 160625Z 07003KT 05/05 A2994 RMK A01 T00480048  RH  100%=      5-min Rain = 0
KPA1 160626Z 07002KT 05/05 A2994 RMK A01 T00480048  RH  100%=      5-min Rain = 0
KPA1 160627Z 08002KT 05/05 A2994 RMK A01 T00480048  RH  100%=      5-min Rain = 0
KPA1 160628Z 07002KT 05/05 A2994 RMK A01 T00480048  RH  100%=      5-min Rain = 0
KPA1 160629Z 09003KT 05/05 A2994 RMK A01 T00480048  RH  100%=      5-min Rain = 0
KPA1 160630Z 09004KT 05/05 A2994 RMK A01 T00480048  RH  100%=      5-min Rain = 0
KPA1 160631Z 09004KT 05/05 A2994 RMK A01 T00480048  RH  100%=      5-min Rain = 0
KPA1 160632Z 08003KT 05/05 A2994 RMK A01 T00480048  RH  100%=      5-min Rain = 0
KPA1 160633Z 10002KT 05/05 A2994 RMK A01 T00480048  RH  100%=      5-min Rain = 0
KPA1 160634Z 10002KT 05/05 A2995 RMK A01 T00480048  RH  100%=      5-min Rain = 0
KPA1 160635Z 10003KT 05/05 A2995 RMK A01 T00480048  RH  100%=      5-min Rain = 0
KPA1 160636Z 09003KT 05/05 A2995 RMK A01 T00480048  RH  100%=      5-min Rain = 0
KPA1 160637Z 10003KT 05/05 A2995 RMK A01 T00480048  RH  100%=      5-min Rain = 0
KPA1 160638Z 11002KT 05/05 A2995 RMK A01 T00480048  RH  100%=      5-min Rain = 0
KPA1 160639Z 11002KT 05/05 A2995 RMK A01 T00480048  RH  100%=      5-min Rain = 0
KPA1 160640Z 09001KT 05/05 A2996 RMK A01 T00480049  RH  100%=      5-min Rain = 0.01
KPA1 160641Z 09001KT 05/05 A2996 RMK A01 T00480048  RH  100%=      5-min Rain = 0
KPA1 160642Z 08001KT 05/05 A2996 RMK A01 T00480048  RH  100%=      5-min Rain = 0
KPA1 160643Z 07000KT 05/05 A2996 RMK A01 T00480048  RH  100%=      5-min Rain = 0
KPA1 160644Z 07000KT 05/05 A2996 RMK A01 T00480048  RH  100%=      5-min Rain = 0
KPA1 160645Z 03000KT 05/05 A2996 RMK A01 T00480048  RH  100%=      5-min Rain = 0
KPA1 160646Z 03001KT 05/05 A2996 RMK A01 T00480048  RH  100%=      5-min Rain = 0
KPA1 160647Z 04001KT 05/05 A2996 RMK A01 T00480048  RH  100%=      5-min Rain = 0
KPA1 160648Z 03001KT 05/05 A2996 RMK A01 T00480048  RH  100%=      5-min Rain = 0
KPA1 160649Z 03001KT 05/05 A2996 RMK A01 T00480048  RH  100%=      5-min Rain = 0
KPA1 160650Z 04000KT 05/05 A2996 RMK A01 T00480048  RH  100%=      5-min Rain = 0
KPA1 160651Z 00000KT 05/05 A2996 RMK A01 T00480048  RH  100%=      5-min Rain = 0
KPA1 160652Z 00000KT 05/05 A2996 RMK A01 T00480048  RH  100%=      5-min Rain = 0
KPA1 160653Z 00000KT 05/05 A2996 RMK A01 T00480048  RH  100%=      5-min Rain = 0.01
KPA1 160654Z 00000KT 05/05 A2997 RMK A01 T00480048  RH  100%=      5-min Rain = 0
KPA1 160655Z 35000KT 05/05 A2996 RMK A01 T00480048  RH  100%=      5-min Rain = 0
KPA1 160656Z 35000KT 05/05 A2996 RMK A01 T00490049  RH  100%=      5-min Rain = 0
KPA1 160657Z 00000KT 05/05 A2996 RMK A01 T00480048  RH  100%=      5-min Rain = 0
KPA1 160658Z 00000KT 05/05 A2996 RMK A01 T00480048  RH  100%=      5-min Rain = 0
KPA1 160659Z 00000KT 05/05 A2996 RMK A01 T00480048  RH  100%=      5-min Rain = 0
KPA1 160700Z 00000KT 05/05 A2996 RMK A01 T00480048  RH  100%=      5-min Rain = 0
KPA1 160701Z 00000KT 05/05 A2996 RMK A01 T00480048  RH  100%=      5-min Rain = 0
KPA1 160702Z 00000KT 05/05 A2996 RMK A01 T00480048  RH  100%=      5-min Rain = 0
KPA1 160703Z 00000KT 05/05 A2996 RMK A01 T00480048  RH  100%=      5-min Rain = 0
KPA1 160704Z 00001KT 05/05 A2996 RMK A01 T00480048  RH  100%=      5-min Rain = 0
KPA1 160705Z 00001KT 05/05 A2996 RMK A01 T00480048  RH  100%=      5-min Rain = 0
KPA1 160706Z 34001KT 05/05 A2996 RMK A01 T00490049  RH  100%=      5-min Rain = 0.01
KPA1 160707Z 33001KT 05/05 A2996 RMK A01 T00490049  RH  100%=      5-min Rain = 0
KPA1 160708Z 33001KT 05/05 A2996 RMK A01 T00490049  RH  100%=      5-min Rain = 0
KPA1 160709Z 33002KT 05/05 A2996 RMK A01 T00490049  RH  100%=      5-min Rain = 0
KPA1 160710Z 33002KT 05/05 A2996 RMK A01 T00490049  RH  100%=      5-min Rain = 0
KPA1 160711Z 33003KT 05/05 A2996 RMK A01 T00490049  RH  100%=      5-min Rain = 0
KPA1 160712Z 33003KT 05/05 A2996 RMK A01 T00500050  RH  100%=      5-min Rain = 0
KPA1 160713Z 31002KT 05/05 A2996 RMK A01 T00500050  RH  100%=      5-min Rain = 0
KPA1 160714Z 31003KT 05/05 A2996 RMK A01 T00500050  RH  100%=      5-min Rain = 0
KPA1 160715Z 31003KT 05/05 A2996 RMK A01 T00500050  RH  100%=      5-min Rain = 0
KPA1 160716Z 32003KT 05/05 A2996 RMK A01 T00500050  RH  100%=      5-min Rain = 0
KPA1 160717Z 32003KT 05/05 A2997 RMK A01 T00500050  RH  100%=      5-min Rain = 0
KPA1 160718Z 32003KT 05/05 A2997 RMK A01 T00500050  RH  100%=      5-min Rain = 0
KPA1 160719Z 32003KT 05/05 A2997 RMK A01 T00500050  RH  100%=      5-min Rain = 0
KPA1 160720Z 33004KT 05/05 A2997 RMK A01 T00500050  RH  100%=      5-min Rain = 0
KPA1 160721Z 34005KT 05/05 A2997 RMK A01 T00500050  RH  100%=      5-min Rain = 0
KPA1 160722Z 34004KT 05/05 A2997 RMK A01 T00500050  RH  100%=      5-min Rain = 0
KPA1 160723Z 32004KT 05/05 A2997 RMK A01 T00500050  RH  100%=      5-min Rain = 0
KPA1 160724Z 33005KT 05/05 A2997 RMK A01 T00510051  RH  100%=      5-min Rain = 0
KPA1 160725Z 33006KT 05/05 A2997 RMK A01 T00500050  RH  100%=      5-min Rain = 0
KPA1 160726Z 33006KT 05/05 A2996 RMK A01 T00500050  RH  100%=      5-min Rain = 0
KPA1 160727Z 33005KT 05/05 A2996 RMK A01 T00500050  RH  100%=      5-min Rain = 0.01
KPA1 160728Z 34005KT 05/05 A2996 RMK A01 T00500050  RH  100%=      5-min Rain = 0
KPA1 160729Z 34005KT 05/05 A2996 RMK A01 T00500050  RH  100%=      5-min Rain = 0
KPA1 160730Z 34005KT 05/05 A2996 RMK A01 T00500050  RH  100%=      5-min Rain = 0
KPA1 160731Z 34004KT 05/05 A2996 RMK A01 T00500050  RH  100%=      5-min Rain = 0
KPA1 160732Z 35005KT 05/05 A2996 RMK A01 T00500050  RH  100%=      5-min Rain = 0
KPA1 160733Z 34004KT 05/05 A2996 RMK A01 T00500050  RH  100%=      5-min Rain = 0
KPA1 160734Z 34004KT 05/05 A2996 RMK A01 T00500050  RH  100%=      5-min Rain = 0
KPA1 160735Z 35005KT 05/05 A2996 RMK A01 T00500050  RH  100%=      5-min Rain = 0
KPA1 160736Z 35005KT 05/05 A2996 RMK A01 T00510051  RH  100%=      5-min Rain = 0
KPA1 160737Z 35003KT 05/05 A2996 RMK A01 T00500050  RH  100%=      5-min Rain = 0
KPA1 160738Z 35003KT 05/05 A2996 RMK A01 T00500050  RH  100%=      5-min Rain = 0
KPA1 160739Z 35003KT 05/05 A2996 RMK A01 T00510051  RH  100%=      5-min Rain = 0
KPA1 160740Z 35003KT 05/05 A2996 RMK A01 T00510051  RH  100%=      5-min Rain = 0
KPA1 160741Z 36003KT 05/05 A2995 RMK A01 T00500050  RH  100%=      5-min Rain = 0
KPA1 160742Z 00003KT 05/05 A2995 RMK A01 T00510051  RH  100%=      5-min Rain = 0
KPA1 160743Z 36003KT 05/05 A2995 RMK A01 T00510051  RH  100%=      5-min Rain = 0
KPA1 160744Z 00003KT 05/05 A2995 RMK A01 T00510051  RH  100%=      5-min Rain = 0
KPA1 160745Z 35004KT 05/05 A2995 RMK A01 T00510051  RH  100%=      5-min Rain = 0
KPA1 160746Z 36004KT 05/05 A2995 RMK A01 T00510051  RH  100%=      5-min Rain = 0
KPA1 160747Z 00003KT 05/05 A2995 RMK A01 T00510051  RH  100%=      5-min Rain = 0
KPA1 160748Z 00004KT 05/05 A2995 RMK A01 T00510051  RH  100%=      5-min Rain = 0
KPA1 160749Z 00003KT 05/05 A2995 RMK A01 T00510051  RH  100%=      5-min Rain = 0
KPA1 160750Z 36003KT 05/05 A2995 RMK A01 T00510051  RH  100%=      5-min Rain = 0
KPA1 160751Z 36004KT 05/05 A2995 RMK A01 T00510051  RH  100%=      5-min Rain = 0
KPA1 160752Z 36004KT 05/05 A2995 RMK A01 T00510051  RH  100%=      5-min Rain = 0
KPA1 160753Z 35004KT 05/05 A2995 RMK A01 T00500051  RH  100%=      5-min Rain = 0
KPA1 160754Z 35004KT 05/05 A2994 RMK A01 T00510051  RH  100%=      5-min Rain = 0
KPA1 160755Z 00004KT 05/05 A2994 RMK A01 T00510051  RH  100%=      5-min Rain = 0
KPA1 160756Z 35004KT 05/05 A2994 RMK A01 T00510051  RH  100%=      5-min Rain = 0
KPA1 160757Z 00005KT 05/05 A2994 RMK A01 T00500050  RH  100%=      5-min Rain = 0
KPA1 160758Z 01005KT 05/05 A2994 RMK A01 T00510051  RH  100%=      5-min Rain = 0
KPA1 160759Z 35005KT 05/05 A2994 RMK A01 T00510051  RH  100%=      5-min Rain = 0
KPA1 160800Z 00004KT 05/05 A2994 RMK A01 T00510051  RH  100%=      5-min Rain = 0
KPA1 160801Z 00005KT 05/05 A2994 RMK A01 T00510051  RH  100%=      5-min Rain = 0
KPA1 160802Z 01005KT 05/05 A2994 RMK A01 T00510051  RH  100%=      5-min Rain = 0
KPA1 160803Z 01005KT 05/05 A2994 RMK A01 T00510051  RH  100%=      5-min Rain = 0
KPA1 160804Z 00005KT 05/05 A2994 RMK A01 T00510051  RH  100%=      5-min Rain = 0
KPA1 160805Z 01004KT 05/05 A2994 RMK A01 T00510051  RH  100%=      5-min Rain = 0
KPA1 160806Z 01004KT 05/05 A2994 RMK A01 T00510051  RH  100%=      5-min Rain = 0
KPA1 160807Z 01004KT 05/05 A2994 RMK A01 T00510051  RH  100%=      5-min Rain = 0
KPA1 160808Z 02004KT 05/05 A2994 RMK A01 T00510051  RH  100%=      5-min Rain = 0
KPA1 160809Z 01005KT 05/05 A2994 RMK A01 T00510051  RH  100%=      5-min Rain = 0
KPA1 160810Z 02005KT 05/05 A2994 RMK A01 T00510051  RH  100%=      5-min Rain = 0
KPA1 160811Z 02004KT 05/05 A2994 RMK A01 T00500050  RH  100%=      5-min Rain = 0
KPA1 160812Z 01005KT 05/05 A2994 RMK A01 T00500050  RH  100%=      5-min Rain = 0
KPA1 160813Z 01005KT 05/05 A2994 RMK A01 T00500050  RH  100%=      5-min Rain = 0
KPA1 160814Z 01005KT 05/05 A2994 RMK A01 T00500050  RH  100%=      5-min Rain = 0
KPA1 160815Z 01005KT 05/05 A2994 RMK A01 T00500050  RH  100%=      5-min Rain = 0
KPA1 160816Z 01005KT 05/05 A2994 RMK A01 T00500050  RH  100%=      5-min Rain = 0
KPA1 160817Z 01005KT 05/05 A2994 RMK A01 T00500050  RH  100%=      5-min Rain = 0
KPA1 160818Z 01005KT 05/05 A2994 RMK A01 T00500050  RH  100%=      5-min Rain = 0
KPA1 160819Z 01005KT 05/05 A2994 RMK A01 T00500050  RH  100%=      5-min Rain = 0
KPA1 160820Z 02005KT 05/05 A2994 RMK A01 T00500050  RH  100%=      5-min Rain = 0
KPA1 160821Z 02006KT 05/05 A2994 RMK A01 T00500050  RH  100%=      5-min Rain = 0
KPA1 160822Z 02005KT 05/05 A2994 RMK A01 T00500050  RH  100%=      5-min Rain = 0
KPA1 160823Z 02006KT 05/05 A2994 RMK A01 T00500050  RH  100%=      5-min Rain = 0
KPA1 160824Z 01006KT 05/05 A2994 RMK A01 T00500050  RH  100%=      5-min Rain = 0
KPA1 160825Z 02005KT 05/05 A2994 RMK A01 T00490050  RH  100%=      5-min Rain = 0
KPA1 160826Z 02005KT 05/05 A2994 RMK A01 T00500050  RH  100%=      5-min Rain = 0
KPA1 160827Z 03005KT 05/05 A2994 RMK A01 T00500050  RH  100%=      5-min Rain = 0
KPA1 160828Z 02004KT 05/05 A2994 RMK A01 T00500050  RH  100%=      5-min Rain = 0
KPA1 160829Z 02004KT 05/05 A2994 RMK A01 T00500050  RH  100%=      5-min Rain = 0
KPA1 160830Z 02005KT 05/05 A2994 RMK A01 T00500050  RH  100%=      5-min Rain = 0
KPA1 160831Z 02005KT 05/05 A2994 RMK A01 T00500050  RH  100%=      5-min Rain = 0
KPA1 160832Z 02006KT 05/05 A2994 RMK A01 T00500050  RH  100%=      5-min Rain = 0
KPA1 160833Z 03005KT 05/05 A2994 RMK A01 T00500050  RH  100%=      5-min Rain = 0
KPA1 160834Z 03005KT 05/05 A2994 RMK A01 T00500050  RH  100%=      5-min Rain = 0
KPA1 160835Z 03006KT 05/05 A2994 RMK A01 T00500050  RH  100%=      5-min Rain = 0
KPA1 160836Z 03005KT 05/05 A2994 RMK A01 T00500050  RH  100%=      5-min Rain = 0
KPA1 160837Z 04004KT 05/05 A2993 RMK A01 T00500050  RH  100%=      5-min Rain = 0
KPA1 160838Z 04005KT 05/05 A2993 RMK A01 T00500050  RH  100%=      5-min Rain = 0
KPA1 160839Z 04005KT 05/05 A2993 RMK A01 T00500050  RH  100%=      5-min Rain = 0
KPA1 160840Z 04005KT 05/05 A2993 RMK A01 T00500050  RH  100%=      5-min Rain = 0
KPA1 160841Z 04005KT 05/05 A2993 RMK A01 T00490050  RH  100%=      5-min Rain = 0
KPA1 160842Z 05005KT 05/05 A2993 RMK A01 T00500050  RH  100%=      5-min Rain = 0
KPA1 160843Z 05005KT 05/05 A2993 RMK A01 T00500050  RH  100%=      5-min Rain = 0
KPA1 160844Z 05005KT 05/05 A2993 RMK A01 T00500050  RH  100%=      5-min Rain = 0
KPA1 160845Z 06005KT 05/05 A2993 RMK A01 T00500050  RH  100%=      5-min Rain = 0
KPA1 160846Z 06005KT 05/05 A2993 RMK A01 T00500050  RH  100%=      5-min Rain = 0
KPA1 160847Z 06006KT 05/05 A2992 RMK A01 T00500050  RH  100%=      5-min Rain = 0
KPA1 160848Z 06006KT 05/05 A2992 RMK A01 T00500050  RH  100%=      5-min Rain = 0
KPA1 160849Z 07007KT 05/05 A2992 RMK A01 T00500050  RH  100%=      5-min Rain = 0
KPA1 160850Z 08007KT 05/05 A2992 RMK A01 T00500050  RH  100%=      5-min Rain = 0
KPA1 160851Z 08008KT 05/05 A2991 RMK A01 T00500050  RH  100%=      5-min Rain = 0
KPA1 160852Z 08008KT 05/05 A2991 RMK A01 T00500050  RH  100%=      5-min Rain = 0
KPA1 160853Z 08008KT 05/05 A2991 RMK A01 T00490049  RH  100%=      5-min Rain = 0
KPA1 160854Z 09007KT 05/05 A2991 RMK A01 T00490049  RH  100%=      5-min Rain = 0
KPA1 160855Z 09007KT 05/05 A2991 RMK A01 T00490049  RH  100%=      5-min Rain = 0
KPA1 160856Z 09007KT 05/05 A2991 RMK A01 T00490049  RH  100%=      5-min Rain = 0.01
KPA1 160857Z 08006KT 05/05 A2991 RMK A01 T00490049  RH  100%=      5-min Rain = 0
KPA1 160858Z 08007KT 05/05 A2991 RMK A01 T00490049  RH  100%=      5-min Rain = 0
KPA1 160859Z 08007KT 05/05 A2991 RMK A01 T00490049  RH  100%=      5-min Rain = 0
KPA1 160900Z 09008KT 05/05 A2991 RMK A01 T00490049  RH  100%=      5-min Rain = 0
KPA1 160901Z 09007KT 05/05 A2991 RMK A01 T00490049  RH  100%=      5-min Rain = 0
KPA1 160902Z 09008KT 05/05 A2991 RMK A01 T00490049  RH  100%=      5-min Rain = 0
KPA1 160903Z 10008KT 05/05 A299 RMK A01 T00490049  RH  100%=      5-min Rain = 0
KPA1 160904Z 10008KT 05/05 A299 RMK A01 T00490049  RH  100%=      5-min Rain = 0
KPA1 160905Z 10008KT 05/05 A299 RMK A01 T00490049  RH  100%=      5-min Rain = 0
KPA1 160906Z 10009KT 05/05 A299 RMK A01 T00490049  RH  100%=      5-min Rain = 0
KPA1 160907Z 10009KT 05/05 A299 RMK A01 T00490049  RH  100%=      5-min Rain = 0
KPA1 160908Z 11009KT 05/05 A299 RMK A01 T00490049  RH  100%=      5-min Rain = 0
KPA1 160909Z 11008KT 05/05 A299 RMK A01 T00490049  RH  100%=      5-min Rain = 0
KPA1 160910Z 11009KT 05/05 A299 RMK A01 T00490049  RH  100%=      5-min Rain = 0
KPA1 160911Z 10008KT 05/05 A299 RMK A01 T00490049  RH  100%=      5-min Rain = 0
KPA1 160912Z 10007KT 05/05 A299 RMK A01 T00490049  RH  100%=      5-min Rain = 0
KPA1 160913Z 11007KT 05/05 A299 RMK A01 T00490049  RH  100%=      5-min Rain = 0
KPA1 160914Z 11008KT 05/05 A299 RMK A01 T00490049  RH  100%=      5-min Rain = 0
KPA1 160915Z 11009KT 05/05 A299 RMK A01 T00490049  RH  100%=      5-min Rain = 0
KPA1 160916Z 11008KT 05/05 A2989 RMK A01 T00490049  RH  100%=      5-min Rain = 0
KPA1 160917Z 11009KT 05/05 A2989 RMK A01 T00490049  RH  100%=      5-min Rain = 0
KPA1 160918Z 11008KT 05/05 A2989 RMK A01 T00490049  RH  100%=      5-min Rain = 0
KPA1 160919Z 11009KT 05/05 A2989 RMK A01 T00490049  RH  100%=      5-min Rain = 0
KPA1 160920Z 11008KT 05/05 A2989 RMK A01 T00490049  RH  100%=      5-min Rain = 0
KPA1 160921Z 12009KT 05/05 A2989 RMK A01 T00480048  RH  100%=      5-min Rain = 0
KPA1 160922Z 11008KT 05/05 A2989 RMK A01 T00480048  RH  100%=      5-min Rain = 0
KPA1 160923Z 11008KT 05/05 A2989 RMK A01 T00480048  RH  100%=      5-min Rain = 0
KPA1 160924Z 11007KT 05/05 A2989 RMK A01 T00470047  RH  100%=      5-min Rain = 0
KPA1 160925Z 11008KT 05/05 A2989 RMK A01 T00470047  RH  100%=      5-min Rain = 0
KPA1 160926Z 10008KT 05/05 A2989 RMK A01 T00470047  RH  100%=      5-min Rain = 0
KPA1 160927Z 10008KT 05/05 A2989 RMK A01 T00470047  RH  100%=      5-min Rain = 0
KPA1 160928Z 10007KT 05/05 A2989 RMK A01 T00470047  RH  100%=      5-min Rain = 0
KPA1 160929Z 10007KT 05/05 A2989 RMK A01 T00460046  RH  100%=      5-min Rain = 0
KPA1 160930Z 10007KT 05/05 A2989 RMK A01 T00460046  RH  100%=      5-min Rain = 0
KPA1 160931Z 10006KT 05/05 A2989 RMK A01 T00460046  RH  100%=      5-min Rain = 0
KPA1 160932Z 10008KT 05/05 A2989 RMK A01 T00460047  RH  100%=      5-min Rain = 0
KPA1 160933Z 10008KT 05/05 A2989 RMK A01 T00470047  RH  100%=      5-min Rain = 0
KPA1 160934Z 10008KT 05/05 A2989 RMK A01 T00460046  RH  100%=      5-min Rain = 0
KPA1 160935Z 10007KT 05/05 A2989 RMK A01 T00470047  RH  100%=      5-min Rain = 0
KPA1 160936Z 10006KT 05/05 A2989 RMK A01 T00460046  RH  100%=      5-min Rain = 0
KPA1 160937Z 10006KT 05/05 A299 RMK A01 T00460046  RH  100%=      5-min Rain = 0
KPA1 160938Z 08004KT 05/05 A299 RMK A01 T00460046  RH  100%=      5-min Rain = 0
KPA1 160939Z 07006KT 05/05 A299 RMK A01 T00470047  RH  100%=      5-min Rain = 0
KPA1 160940Z 07006KT 05/05 A299 RMK A01 T00460046  RH  100%=      5-min Rain = 0
KPA1 160941Z 04005KT 05/05 A299 RMK A01 T00470047  RH  100%=      5-min Rain = 0
KPA1 160942Z 03005KT 05/05 A299 RMK A01 T00460046  RH  100%=      5-min Rain = 0
KPA1 160943Z 02006KT 05/05 A2991 RMK A01 T00470047  RH  100%=      5-min Rain = 0
KPA1 160944Z 36006KT 05/05 A2991 RMK A01 T00470047  RH  100%=      5-min Rain = 0
KPA1 160945Z 01006KT 05/05 A2991 RMK A01 T00470047  RH  100%=      5-min Rain = 0
KPA1 160946Z 36006KT 05/05 A2991 RMK A01 T00470047  RH  100%=      5-min Rain = 0
KPA1 160947Z 02006KT 05/05 A2991 RMK A01 T00470047  RH  100%=      5-min Rain = 0
KPA1 160948Z 02005KT 05/05 A2991 RMK A01 T00470047  RH  100%=      5-min Rain = 0
KPA1 160949Z 02006KT 05/05 A2991 RMK A01 T00470047  RH  100%=      5-min Rain = 0
KPA1 160950Z 02006KT 05/05 A2991 RMK A01 T00480048  RH  100%=      5-min Rain = 0
KPA1 160951Z 03007KT 05/05 A2991 RMK A01 T00480048  RH  100%=      5-min Rain = 0
KPA1 160952Z 04005KT 05/05 A2991 RMK A01 T00480048  RH  100%=      5-min Rain = 0
KPA1 160953Z 02005KT 05/05 A2991 RMK A01 T00470047  RH  100%=      5-min Rain = 0
KPA1 160954Z 02005KT 05/05 A2991 RMK A01 T00470047  RH  100%=      5-min Rain = 0
KPA1 160955Z 03007KT 05/05 A2991 RMK A01 T00470047  RH  100%=      5-min Rain = 0
KPA1 160956Z 03007KT 05/05 A2991 RMK A01 T00470047  RH  100%=      5-min Rain = 0
KPA1 160957Z 04006KT 05/05 A2991 RMK A01 T00470047  RH  100%=      5-min Rain = 0
KPA1 160958Z 04006KT 05/05 A2991 RMK A01 T00470047  RH  100%=      5-min Rain = 0
KPA1 160959Z 04006KT 05/05 A2991 RMK A01 T00470047  RH  100%=      5-min Rain = 0
KPA1 161000Z 05005KT 05/05 A2991 RMK A01 T00470047  RH  100%=      5-min Rain = 0
KPA1 161001Z 05006KT 05/05 A2991 RMK A01 T00470047  RH  100%=      5-min Rain = 0
KPA1 161002Z 05007KT 05/05 A2991 RMK A01 T00470047  RH  100%=      5-min Rain = 0
KPA1 161003Z 06006KT 05/05 A299 RMK A01 T00470047  RH  100%=      5-min Rain = 0
KPA1 161004Z 08006KT 05/05 A299 RMK A01 T00480048  RH  100%=      5-min Rain = 0
KPA1 161005Z 08007KT 05/05 A299 RMK A01 T00480048  RH  100%=      5-min Rain = 0
KPA1 161006Z 08006KT 05/05 A299 RMK A01 T00480048  RH  100%=      5-min Rain = 0
KPA1 161007Z 08006KT 05/05 A299 RMK A01 T00480048  RH  100%=      5-min Rain = 0
KPA1 161008Z 08006KT 05/05 A299 RMK A01 T00480048  RH  100%=      5-min Rain = 0
KPA1 161009Z 09005KT 05/05 A2989 RMK A01 T00480048  RH  100%=      5-min Rain = 0
KPA1 161010Z 09005KT 05/05 A2989 RMK A01 T00480048  RH  100%=      5-min Rain = 0
KPA1 161011Z 09004KT 05/05 A2989 RMK A01 T00480048  RH  100%=      5-min Rain = 0
KPA1 161012Z 08005KT 05/05 A299 RMK A01 T00480048  RH  100%=      5-min Rain = 0
KPA1 161013Z 08004KT 05/05 A299 RMK A01 T00480048  RH  100%=      5-min Rain = 0
KPA1 161014Z 08004KT 05/05 A299 RMK A01 T00480048  RH  100%=      5-min Rain = 0
KPA1 161015Z 08005KT 05/05 A299 RMK A01 T00480048  RH  100%=      5-min Rain = 0
KPA1 161016Z 08005KT 05/05 A299 RMK A01 T00480048  RH  100%=      5-min Rain = 0
KPA1 161017Z 09005KT 05/05 A299 RMK A01 T00470047  RH  100%=      5-min Rain = 0
KPA1 161018Z 08005KT 05/05 A299 RMK A01 T00470047  RH  100%=      5-min Rain = 0
KPA1 161019Z 08006KT 05/05 A299 RMK A01 T00470047  RH  100%=      5-min Rain = 0
KPA1 161020Z 08006KT 05/05 A299 RMK A01 T00470047  RH  100%=      5-min Rain = 0
KPA1 161021Z 08006KT 05/05 A299 RMK A01 T00460046  RH  100%=      5-min Rain = 0
KPA1 161022Z 07005KT 05/05 A299 RMK A01 T00460046  RH  100%=      5-min Rain = 0
KPA1 161023Z 07005KT 05/05 A299 RMK A01 T00470047  RH  100%=      5-min Rain = 0
KPA1 161024Z 08005KT 05/05 A299 RMK A01 T00470047  RH  100%=      5-min Rain = 0
KPA1 161025Z 09005KT 05/05 A299 RMK A01 T00460046  RH  100%=      5-min Rain = 0
KPA1 161026Z 10005KT 05/05 A299 RMK A01 T00460046  RH  100%=      5-min Rain = 0
KPA1 161027Z 10005KT 05/05 A299 RMK A01 T00450045  RH  100%=      5-min Rain = 0
KPA1 161028Z 10004KT 05/05 A299 RMK A01 T00460046  RH  100%=      5-min Rain = 0
KPA1 161029Z 10005KT 05/05 A299 RMK A01 T00450045  RH  100%=      5-min Rain = 0
KPA1 161030Z 10004KT 05/05 A299 RMK A01 T00460046  RH  100%=      5-min Rain = 0
KPA1 161031Z 09003KT 05/05 A299 RMK A01 T00460046  RH  100%=      5-min Rain = 0
KPA1 161032Z 09004KT 05/05 A299 RMK A01 T00460046  RH  100%=      5-min Rain = 0
KPA1 161033Z 10005KT 05/05 A299 RMK A01 T00460046  RH  100%=      5-min Rain = 0
KPA1 161034Z 09005KT 05/05 A299 RMK A01 T00460046  RH  100%=      5-min Rain = 0
KPA1 161035Z 10005KT 05/05 A299 RMK A01 T00460046  RH  100%=      5-min Rain = 0
KPA1 161036Z 09005KT 05/05 A299 RMK A01 T00460046  RH  100%=      5-min Rain = 0
KPA1 161037Z 10004KT 05/05 A299 RMK A01 T00460046  RH  100%=      5-min Rain = 0
KPA1 161038Z 09005KT 05/05 A299 RMK A01 T00450045  RH  100%=      5-min Rain = 0
KPA1 161039Z 08005KT 05/05 A299 RMK A01 T00450045  RH  100%=      5-min Rain = 0
KPA1 161040Z 09005KT 05/05 A299 RMK A01 T00460046  RH  100%=      5-min Rain = 0
KPA1 161041Z 10005KT 05/05 A299 RMK A01 T00450045  RH  100%=      5-min Rain = 0
KPA1 161042Z 11005KT 05/05 A299 RMK A01 T00450046  RH  100%=      5-min Rain = 0
KPA1 161043Z 10005KT 05/05 A299 RMK A01 T00460046  RH  100%=      5-min Rain = 0
KPA1 161044Z 10005KT 05/05 A299 RMK A01 T00460046  RH  100%=      5-min Rain = 0
KPA1 161045Z 11005KT 05/05 A299 RMK A01 T00460046  RH  100%=      5-min Rain = 0
KPA1 161046Z 11005KT 05/05 A299 RMK A01 T00450045  RH  100%=      5-min Rain = 0
KPA1 161047Z 11005KT 05/05 A299 RMK A01 T00450045  RH  100%=      5-min Rain = 0
KPA1 161048Z 11004KT 05/05 A299 RMK A01 T00460046  RH  100%=      5-min Rain = 0
KPA1 161049Z 11005KT 05/05 A299 RMK A01 T00450045  RH  100%=      5-min Rain = 0
KPA1 161050Z 11004KT 05/05 A299 RMK A01 T00450045  RH  100%=      5-min Rain = 0
KPA1 161051Z 11004KT 05/05 A299 RMK A01 T00450045  RH  100%=      5-min Rain = 0
KPA1 161052Z 10003KT 05/05 A299 RMK A01 T00450045  RH  100%=      5-min Rain = 0
KPA1 161053Z 09003KT 05/05 A299 RMK A01 T00450045  RH  100%=      5-min Rain = 0
KPA1 161054Z 09004KT 05/05 A299 RMK A01 T00450045  RH  100%=      5-min Rain = 0
KPA1 161055Z 09004KT 05/05 A299 RMK A01 T00450045  RH  100%=      5-min Rain = 0
KPA1 161056Z 08004KT 05/05 A299 RMK A01 T00450045  RH  100%=      5-min Rain = 0
KPA1 161057Z 08004KT 05/05 A299 RMK A01 T00450045  RH  100%=      5-min Rain = 0
KPA1 161058Z 09004KT 05/05 A299 RMK A01 T00450045  RH  100%=      5-min Rain = 0
KPA1 161059Z 06003KT 05/05 A299 RMK A01 T00450045  RH  100%=      5-min Rain = 0
KPA1 161100Z 05004KT 05/05 A299 RMK A01 T00450045  RH  100%=      5-min Rain = 0
KPA1 161101Z 04004KT 05/05 A299 RMK A01 T00460046  RH  100%=      5-min Rain = 0
KPA1 161102Z 03004KT 05/05 A299 RMK A01 T00450045  RH  100%=      5-min Rain = 0
KPA1 161103Z 02004KT 05/05 A299 RMK A01 T00460046  RH  100%=      5-min Rain = 0
KPA1 161104Z 04004KT 05/05 A299 RMK A01 T00470047  RH  100%=      5-min Rain = 0
KPA1 161105Z 03004KT 05/05 A299 RMK A01 T00460046  RH  100%=      5-min Rain = 0
KPA1 161106Z 03004KT 05/05 A299 RMK A01 T00460046  RH  100%=      5-min Rain = 0
KPA1 161107Z 04003KT 05/05 A299 RMK A01 T00460046  RH  100%=      5-min Rain = 0
KPA1 161108Z 05003KT 05/05 A299 RMK A01 T00460046  RH  100%=      5-min Rain = 0
KPA1 161109Z 05003KT 05/05 A299 RMK A01 T00460046  RH  100%=      5-min Rain = 0
KPA1 161110Z 03003KT 05/05 A2991 RMK A01 T00450045  RH  100%=      5-min Rain = 0
KPA1 161111Z 03003KT 05/05 A2991 RMK A01 T00460046  RH  100%=      5-min Rain = 0
KPA1 161112Z 03004KT 05/05 A2991 RMK A01 T00450045  RH  100%=      5-min Rain = 0
KPA1 161113Z 04004KT 05/05 A2991 RMK A01 T00460046  RH  100%=      5-min Rain = 0
KPA1 161114Z 03003KT 05/05 A2991 RMK A01 T00450045  RH  100%=      5-min Rain = 0
KPA1 161115Z 03003KT 05/05 A2991 RMK A01 T00450045  RH  100%=      5-min Rain = 0
KPA1 161116Z 02004KT 05/05 A2991 RMK A01 T00460046  RH  100%=      5-min Rain = 0
KPA1 161117Z 01004KT 05/05 A2991 RMK A01 T00460046  RH  100%=      5-min Rain = 0
KPA1 161118Z 02003KT 05/05 A2991 RMK A01 T00460046  RH  100%=      5-min Rain = 0
KPA1 161119Z 03002KT 05/05 A2991 RMK A01 T00450045  RH  100%=      5-min Rain = 0
KPA1 161120Z 01002KT 05/05 A2991 RMK A01 T00450045  RH  100%=      5-min Rain = 0
KPA1 161121Z 36003KT 05/05 A2991 RMK A01 T00460046  RH  100%=      5-min Rain = 0
KPA1 161122Z 00002KT 05/05 A2992 RMK A01 T00460046  RH  100%=      5-min Rain = 0
KPA1 161123Z 35002KT 05/05 A2992 RMK A01 T00460046  RH  100%=      5-min Rain = 0
KPA1 161124Z 00003KT 05/05 A2992 RMK A01 T00460046  RH  100%=      5-min Rain = 0
KPA1 161125Z 00003KT 05/05 A2992 RMK A01 T00460046  RH  100%=      5-min Rain = 0
KPA1 161126Z 35003KT 05/05 A2992 RMK A01 T00460046  RH  100%=      5-min Rain = 0
KPA1 161127Z 35003KT 05/05 A2992 RMK A01 T00460046  RH  100%=      5-min Rain = 0
KPA1 161128Z 36003KT 05/05 A2991 RMK A01 T00460046  RH  100%=      5-min Rain = 0
KPA1 161129Z 00003KT 05/05 A2991 RMK A01 T00460046  RH  100%=      5-min Rain = 0
KPA1 161130Z 36002KT 05/05 A2991 RMK A01 T00460046  RH  100%=      5-min Rain = 0
KPA1 161131Z 35002KT 05/05 A2991 RMK A01 T00470047  RH  100%=      5-min Rain = 0
KPA1 161132Z 36002KT 05/05 A2991 RMK A01 T00470047  RH  100%=      5-min Rain = 0
KPA1 161133Z 36002KT 05/05 A2991 RMK A01 T00470047  RH  100%=      5-min Rain = 0
KPA1 161134Z 35002KT 05/05 A2991 RMK A01 T00470047  RH  100%=      5-min Rain = 0
KPA1 161135Z 00003KT 05/05 A2991 RMK A01 T00460046  RH  100%=      5-min Rain = 0
KPA1 161136Z 02003KT 05/05 A2991 RMK A01 T00470047  RH  100%=      5-min Rain = 0
KPA1 161137Z 01004KT 05/05 A2991 RMK A01 T00470047  RH  100%=      5-min Rain = 0
KPA1 161138Z 01003KT 05/05 A2991 RMK A01 T00470047  RH  100%=      5-min Rain = 0
KPA1 161139Z 01004KT 05/05 A2991 RMK A01 T00460046  RH  100%=      5-min Rain = 0
KPA1 161140Z 02003KT 05/05 A2991 RMK A01 T00470047  RH  100%=      5-min Rain = 0
KPA1 161141Z 02003KT 05/05 A2991 RMK A01 T00470047  RH  100%=      5-min Rain = 0
KPA1 161142Z 03003KT 05/05 A2991 RMK A01 T00460046  RH  100%=      5-min Rain = 0
KPA1 161143Z 03003KT 05/05 A2991 RMK A01 T00470047  RH  100%=      5-min Rain = 0
KPA1 161144Z 04003KT 05/05 A2991 RMK A01 T00460046  RH  100%=      5-min Rain = 0
KPA1 161145Z 04003KT 05/05 A2991 RMK A01 T00470047  RH  100%=      5-min Rain = 0
KPA1 161146Z 04003KT 05/05 A2991 RMK A01 T00470047  RH  100%=      5-min Rain = 0
KPA1 161147Z 04004KT 05/05 A2991 RMK A01 T00460046  RH  100%=      5-min Rain = 0
KPA1 161148Z 05005KT 05/05 A2991 RMK A01 T00470047  RH  100%=      5-min Rain = 0
KPA1 161149Z 05005KT 05/05 A2991 RMK A01 T00460046  RH  100%=      5-min Rain = 0
KPA1 161150Z 05005KT 05/05 A2991 RMK A01 T00460046  RH  100%=      5-min Rain = 0
KPA1 161151Z 05006KT 05/05 A2991 RMK A01 T00450046  RH  100%=      5-min Rain = 0
KPA1 161152Z 05005KT 05/05 A2991 RMK A01 T00450045  RH  100%=      5-min Rain = 0
KPA1 161153Z 05005KT 04/04 A2991 RMK A01 T00440044  RH  100%=      5-min Rain = 0
KPA1 161154Z 05004KT 04/04 A2991 RMK A01 T00440044  RH  100%=      5-min Rain = 0
KPA1 161155Z 06004KT 04/04 A2991 RMK A01 T00440044  RH  100%=      5-min Rain = 0
KPA1 161156Z 06003KT 04/04 A2991 RMK A01 T00440044  RH  100%=      5-min Rain = 0
KPA1 161157Z 06004KT 04/04 A2991 RMK A01 T00440044  RH  100%=      5-min Rain = 0
KPA1 161158Z 05004KT 04/04 A2991 RMK A01 T00440044  RH  100%=      5-min Rain = 0
KPA1 161159Z 06004KT 04/04 A2991 RMK A01 T00440044  RH  100%=      5-min Rain = 0
KPA1 161200Z 06004KT 04/04 A2991 RMK A01 T00440044  RH  100%=      5-min Rain = 0
KPA1 161201Z 05004KT 04/04 A2991 RMK A01 T00430043  RH  100%=      5-min Rain = 0
KPA1 161202Z 05004KT 04/04 A2991 RMK A01 T00430043  RH  100%=      5-min Rain = 0
KPA1 161203Z 06004KT 04/04 A2991 RMK A01 T00430043  RH  100%=      5-min Rain = 0
KPA1 161204Z 06004KT 04/04 A2991 RMK A01 T00430043  RH  100%=      5-min Rain = 0
KPA1 161205Z 06004KT 04/04 A2991 RMK A01 T00430043  RH  100%=      5-min Rain = 0
KPA1 161206Z 05003KT 04/04 A2991 RMK A01 T00430043  RH  100%=      5-min Rain = 0
KPA1 161207Z 05004KT 04/04 A2991 RMK A01 T00430043  RH  100%=      5-min Rain = 0
KPA1 161208Z 06004KT 04/04 A2991 RMK A01 T00430043  RH  100%=      5-min Rain = 0
KPA1 161209Z 04005KT 04/04 A2991 RMK A01 T00430043  RH  100%=      5-min Rain = 0
KPA1 161210Z 05005KT 04/04 A2991 RMK A01 T00430043  RH  100%=      5-min Rain = 0
KPA1 161211Z 06004KT 04/04 A2991 RMK A01 T00430043  RH  100%=      5-min Rain = 0
KPA1 161212Z 05004KT 04/04 A2991 RMK A01 T00430043  RH  100%=      5-min Rain = 0
KPA1 161213Z 05004KT 04/04 A2991 RMK A01 T00430043  RH  100%=      5-min Rain = 0
KPA1 161214Z 06003KT 04/04 A2991 RMK A01 T00430043  RH  100%=      5-min Rain = 0
KPA1 161215Z 06003KT 04/04 A2991 RMK A01 T00430043  RH  100%=      5-min Rain = 0
KPA1 161216Z 06003KT 04/04 A2991 RMK A01 T00430043  RH  100%=      5-min Rain = 0
KPA1 161217Z 06003KT 04/04 A2991 RMK A01 T00430043  RH  100%=      5-min Rain = 0
KPA1 161218Z 06003KT 04/04 A2991 RMK A01 T00430043  RH  100%=      5-min Rain = 0
KPA1 161219Z 06004KT 04/04 A2992 RMK A01 T00430043  RH  100%=      5-min Rain = 0
KPA1 161220Z 05004KT 04/04 A2992 RMK A01 T00430043  RH  100%=      5-min Rain = 0
KPA1 161221Z 06003KT 04/04 A2992 RMK A01 T00430043  RH  100%=      5-min Rain = 0
KPA1 161222Z 07003KT 04/04 A2992 RMK A01 T00430043  RH  100%=      5-min Rain = 0
KPA1 161223Z 06004KT 04/04 A2992 RMK A01 T00430043  RH  100%=      5-min Rain = 0
KPA1 161224Z 05004KT 04/04 A2992 RMK A01 T00430043  RH  100%=      5-min Rain = 0
KPA1 161225Z 05004KT 04/04 A2992 RMK A01 T00430043  RH  100%=      5-min Rain = 0
KPA1 161226Z 05004KT 04/04 A2992 RMK A01 T00430043  RH  100%=      5-min Rain = 0
KPA1 161227Z 05005KT 04/04 A2992 RMK A01 T00430043  RH  100%=      5-min Rain = 0
KPA1 161228Z 05005KT 04/04 A2992 RMK A01 T00430043  RH  100%=      5-min Rain = 0
KPA1 161229Z 05004KT 04/04 A2992 RMK A01 T00440044  RH  100%=      5-min Rain = 0
KPA1 161230Z 06004KT 04/04 A2992 RMK A01 T00430043  RH  100%=      5-min Rain = 0
KPA1 161231Z 06004KT 04/04 A2992 RMK A01 T00430043  RH  100%=      5-min Rain = 0
KPA1 161232Z 07004KT 04/04 A2992 RMK A01 T00430043  RH  100%=      5-min Rain = 0
KPA1 161233Z 06004KT 04/04 A2992 RMK A01 T00430043  RH  100%=      5-min Rain = 0
KPA1 161234Z 06004KT 04/04 A2992 RMK A01 T00430043  RH  100%=      5-min Rain = 0
KPA1 161235Z 06003KT 04/04 A2992 RMK A01 T00430043  RH  100%=      5-min Rain = 0
KPA1 161236Z 06004KT 04/04 A2992 RMK A01 T00430043  RH  100%=      5-min Rain = 0
KPA1 161237Z 06004KT 04/04 A2992 RMK A01 T00440044  RH  100%=      5-min Rain = 0
KPA1 161238Z 06004KT 04/04 A2992 RMK A01 T00440044  RH  100%=      5-min Rain = 0
KPA1 161239Z 06004KT 04/04 A2992 RMK A01 T00440044  RH  100%=      5-min Rain = 0
KPA1 161240Z 05003KT 04/04 A2993 RMK A01 T00440044  RH  100%=      5-min Rain = 0
KPA1 161241Z 06002KT 04/04 A2992 RMK A01 T00440044  RH  100%=      5-min Rain = 0
KPA1 161242Z 06002KT 04/04 A2992 RMK A01 T00440044  RH  100%=      5-min Rain = 0
KPA1 161243Z 07002KT 04/04 A2992 RMK A01 T00440044  RH  100%=      5-min Rain = 0
KPA1 161244Z 07003KT 04/04 A2993 RMK A01 T00440044  RH  100%=      5-min Rain = 0
KPA1 161245Z 06003KT 04/04 A2993 RMK A01 T00440044  RH  100%=      5-min Rain = 0
KPA1 161246Z 06003KT 04/04 A2993 RMK A01 T00440044  RH  100%=      5-min Rain = 0
KPA1 161247Z 04003KT 04/04 A2993 RMK A01 T00440044  RH  100%=      5-min Rain = 0
KPA1 161248Z 03003KT 04/04 A2993 RMK A01 T00440044  RH  100%=      5-min Rain = 0
KPA1 161249Z 01004KT 04/04 A2993 RMK A01 T00440044  RH  100%=      5-min Rain = 0
KPA1 161250Z 35008KT 05/05 A2994 RMK A01 T00450045  RH  100%=      5-min Rain = 0
KPA1 161251Z 34008KT 05/05 A2994 RMK A01 T00450045  RH  100%=      5-min Rain = 0
KPA1 161252Z 35005KT 05/05 A2994 RMK A01 T00460046  RH  100%=      5-min Rain = 0
KPA1 161253Z 36004KT 05/05 A2994 RMK A01 T00450045  RH  100%=      5-min Rain = 0
KPA1 161254Z 35005KT 05/05 A2994 RMK A01 T00450045  RH  100%=      5-min Rain = 0
KPA1 161255Z 34007KT 05/05 A2994 RMK A01 T00450045  RH  100%=      5-min Rain = 0
KPA1 161256Z 34007KT 05/05 A2994 RMK A01 T00460046  RH  100%=      5-min Rain = 0
KPA1 161257Z 35005KT 05/05 A2994 RMK A01 T00460046  RH  100%=      5-min Rain = 0
KPA1 161258Z 35006KT 05/05 A2994 RMK A01 T00460046  RH  100%=      5-min Rain = 0
KPA1 161259Z 34007KT 05/05 A2994 RMK A01 T00460046  RH  100%=      5-min Rain = 0
KPA1 161300Z 35008KT 05/05 A2994 RMK A01 T00460046  RH  100%=      5-min Rain = 0
KPA1 161301Z 34007KT 05/05 A2994 RMK A01 T00460046  RH  100%=      5-min Rain = 0
KPA1 161302Z 35007KT 05/05 A2994 RMK A01 T00460046  RH  100%=      5-min Rain = 0
KPA1 161303Z 36007KT 05/05 A2994 RMK A01 T00460046  RH  100%=      5-min Rain = 0
KPA1 161304Z 36008KT 05/05 A2994 RMK A01 T00460046  RH  100%=      5-min Rain = 0
KPA1 161305Z 35007KT 05/05 A2994 RMK A01 T00460046  RH  100%=      5-min Rain = 0
KPA1 161306Z 35007KT 05/05 A2994 RMK A01 T00460046  RH  100%=      5-min Rain = 0
KPA1 161307Z 35007KT 05/05 A2994 RMK A01 T00460046  RH  100%=      5-min Rain = 0
KPA1 161308Z 36007KT 05/05 A2994 RMK A01 T00460046  RH  100%=      5-min Rain = 0
KPA1 161309Z 36006KT 05/05 A2994 RMK A01 T00470047  RH  100%=      5-min Rain = 0
KPA1 161310Z 00007KT 05/05 A2994 RMK A01 T00470047  RH  100%=      5-min Rain = 0
KPA1 161311Z 36007KT 05/05 A2994 RMK A01 T00470047  RH  100%=      5-min Rain = 0
KPA1 161312Z 00007KT 05/05 A2994 RMK A01 T00470047  RH  100%=      5-min Rain = 0
KPA1 161313Z 35007KT 05/05 A2994 RMK A01 T00470047  RH  100%=      5-min Rain = 0
KPA1 161314Z 35008KT 05/05 A2994 RMK A01 T00470047  RH  100%=      5-min Rain = 0
KPA1 161315Z 35009KT 05/05 A2995 RMK A01 T00470047  RH  100%=      5-min Rain = 0
KPA1 161316Z 36009KT 05/05 A2995 RMK A01 T00480048  RH  100%=      5-min Rain = 0
KPA1 161317Z 36007KT 05/05 A2995 RMK A01 T00480048  RH  100%=      5-min Rain = 0
KPA1 161318Z 35007KT 05/05 A2995 RMK A01 T00480048  RH  100%=      5-min Rain = 0
KPA1 161319Z 35007KT 05/05 A2995 RMK A01 T00480048  RH  100%=      5-min Rain = 0
KPA1 161320Z 36008KT 05/05 A2995 RMK A01 T00480048  RH  100%=      5-min Rain = 0
KPA1 161321Z 36008KT 05/05 A2995 RMK A01 T00480048  RH  100%=      5-min Rain = 0
KPA1 161322Z 35009KT 05/05 A2995 RMK A01 T00480048  RH  100%=      5-min Rain = 0
KPA1 161323Z 35008KT 05/05 A2995 RMK A01 T00480048  RH  100%=      5-min Rain = 0
KPA1 161324Z 35008KT 05/05 A2995 RMK A01 T00480048  RH  100%=      5-min Rain = 0
KPA1 161325Z 36009KT 05/05 A2995 RMK A01 T00490049  RH  100%=      5-min Rain = 0
KPA1 161326Z 35010KT 05/05 A2996 RMK A01 T00490049  RH  100%=      5-min Rain = 0
KPA1 161327Z 35009KT 05/05 A2996 RMK A01 T00480048  RH  100%=      5-min Rain = 0
KPA1 161328Z 35009KT 05/05 A2996 RMK A01 T00480048  RH  100%=      5-min Rain = 0
KPA1 161329Z 36010KT 05/05 A2996 RMK A01 T00480048  RH  100%=      5-min Rain = 0
KPA1 161330Z 35009KT 05/05 A2996 RMK A01 T00480048  RH  100%=      5-min Rain = 0
KPA1 161331Z 35010KT 05/05 A2996 RMK A01 T00480048  RH  100%=      5-min Rain = 0
KPA1 161332Z 35011KT 05/05 A2995 RMK A01 T00480048  RH  100%=      5-min Rain = 0
KPA1 161333Z 35010KT 05/05 A2996 RMK A01 T00480048  RH  100%=      5-min Rain = 0
KPA1 161334Z 36010KT 05/05 A2995 RMK A01 T00480048  RH  100%=      5-min Rain = 0
KPA1 161335Z 35009KT 05/05 A2995 RMK A01 T00490049  RH  100%=      5-min Rain = 0
KPA1 161336Z 34010KT 05/05 A2995 RMK A01 T00490049  RH  100%=      5-min Rain = 0
KPA1 161337Z 34009KT 05/05 A2996 RMK A01 T00480048  RH  100%=      5-min Rain = 0
KPA1 161338Z 35008KT 05/05 A2996 RMK A01 T00480048  RH  100%=      5-min Rain = 0
KPA1 161339Z 34009KT 05/05 A2996 RMK A01 T00480048  RH  100%=      5-min Rain = 0
KPA1 161340Z 35009KT 05/05 A2996 RMK A01 T00480048  RH  100%=      5-min Rain = 0
KPA1 161341Z 35009KT 05/05 A2996 RMK A01 T00490049  RH  100%=      5-min Rain = 0
KPA1 161342Z 35009KT 05/05 A2996 RMK A01 T00490049  RH  100%=      5-min Rain = 0
KPA1 161343Z 35008KT 05/05 A2996 RMK A01 T00490049  RH  100%=      5-min Rain = 0
KPA1 161344Z 35008KT 05/05 A2996 RMK A01 T00490049  RH  100%=      5-min Rain = 0
KPA1 161345Z 35009KT 05/05 A2996 RMK A01 T00490049  RH  100%=      5-min Rain = 0
KPA1 161346Z 34009KT 05/05 A2996 RMK A01 T00480048  RH  100%=      5-min Rain = 0
KPA1 161347Z 35009KT 05/05 A2996 RMK A01 T00480048  RH  100%=      5-min Rain = 0
KPA1 161348Z 01009KT 05/05 A2996 RMK A01 T00480048  RH  100%=      5-min Rain = 0
KPA1 161349Z 36008KT 05/05 A2996 RMK A01 T00480048  RH  100%=      5-min Rain = 0
KPA1 161350Z 35009KT 05/05 A2996 RMK A01 T00480048  RH  100%=      5-min Rain = 0
KPA1 161351Z 36010KT 05/05 A2996 RMK A01 T00480048  RH  100%=      5-min Rain = 0
KPA1 161352Z 00010KT 05/05 A2996 RMK A01 T00480048  RH  100%=      5-min Rain = 0
KPA1 161353Z 00009KT 05/05 A2996 RMK A01 T00470047  RH  100%=      5-min Rain = 0
KPA1 161354Z 36011KT 05/05 A2996 RMK A01 T00470047  RH  100%=      5-min Rain = 0
KPA1 161355Z 36012KT 05/05 A2996 RMK A01 T00470047  RH  100%=      5-min Rain = 0
KPA1 161356Z 36010KT 05/05 A2996 RMK A01 T00460046  RH  100%=      5-min Rain = 0
KPA1 161357Z 35010KT 05/05 A2996 RMK A01 T00460046  RH  100%=      5-min Rain = 0
KPA1 161358Z 35009KT 05/05 A2996 RMK A01 T00460047  RH  100%=      5-min Rain = 0
KPA1 161359Z 35009KT 05/05 A2996 RMK A01 T00460046  RH  100%=      5-min Rain = 0
KPA1 161400Z 35010KT 05/05 A2996 RMK A01 T00470047  RH  100%=      5-min Rain = 0
KPA1 161401Z 35010KT 05/05 A2996 RMK A01 T00470047  RH  100%=      5-min Rain = 0
KPA1 161402Z 35012KT 05/05 A2996 RMK A01 T00460046  RH  100%=      5-min Rain = 0
KPA1 161403Z 35012KT 05/05 A2996 RMK A01 T00460046  RH  100%=      5-min Rain = 0
KPA1 161404Z 34013KT 05/05 A2996 RMK A01 T00460046  RH  100%=      5-min Rain = 0
KPA1 161405Z 35011KT 05/05 A2996 RMK A01 T00450045  RH  100%=      5-min Rain = 0
KPA1 161406Z 35010KT 05/05 A2996 RMK A01 T00450045  RH  100%=      5-min Rain = 0
KPA1 161407Z 36012KT 05/05 A2996 RMK A01 T00460046  RH  100%=      5-min Rain = 0
KPA1 161408Z 36012KT 05/05 A2996 RMK A01 T00450045  RH  100%=      5-min Rain = 0
KPA1 161409Z 35012KT 05/05 A2996 RMK A01 T00450045  RH  100%=      5-min Rain = 0
KPA1 161410Z 35012KT 04/04 A2996 RMK A01 T00440044  RH  100%=      5-min Rain = 0
KPA1 161411Z 35012KT 04/04 A2996 RMK A01 T00440044  RH  100%=      5-min Rain = 0
KPA1 161412Z 35013KT 04/04 A2997 RMK A01 T00440044  RH  100%=      5-min Rain = 0
KPA1 161413Z 36010KT 04/04 A2997 RMK A01 T00440044  RH  100%=      5-min Rain = 0
KPA1 161414Z 35008G13KT 04/04 A2997 RMK A01 T00440044  RH  100%=      5-min Rain = 0
KPA1 161415Z 35013KT 05/05 A2997 RMK A01 T00450045  RH  100%=      5-min Rain = 0
KPA1 161416Z 35012KT 05/05 A2997 RMK A01 T00450045  RH  100%=      5-min Rain = 0
KPA1 161417Z 35014KT 04/04 A2997 RMK A01 T00440044  RH  100%=      5-min Rain = 0
KPA1 161418Z 35014KT 04/04 A2997 RMK A01 T00430043  RH  100%=      5-min Rain = 0
KPA1 161419Z 35013KT 04/04 A2997 RMK A01 T00430043  RH  100%=      5-min Rain = 0
KPA1 161420Z 35012KT 04/04 A2997 RMK A01 T00430043  RH  100%=      5-min Rain = 0
KPA1 161421Z 35012KT 04/04 A2997 RMK A01 T00430043  RH  100%=      5-min Rain = 0
KPA1 161422Z 35013KT 04/04 A2997 RMK A01 T00430043  RH  100%=      5-min Rain = 0
KPA1 161423Z 35011KT 04/04 A2997 RMK A01 T00430043  RH  100%=      5-min Rain = 0
KPA1 161424Z 35013KT 04/04 A2997 RMK A01 T00430043  RH  100%=      5-min Rain = 0
KPA1 161425Z 35013KT 04/04 A2997 RMK A01 T00420042  RH  100%=      5-min Rain = 0
KPA1 161426Z 36013KT 04/04 A2997 RMK A01 T00420042  RH  100%=      5-min Rain = 0
KPA1 161427Z 36014KT 04/04 A2997 RMK A01 T00420042  RH  100%=      5-min Rain = 0
KPA1 161428Z 35011KT 04/04 A2997 RMK A01 T00420042  RH  100%=      5-min Rain = 0
KPA1 161429Z 35010KT 04/04 A2997 RMK A01 T00430043  RH  100%=      5-min Rain = 0
KPA1 161430Z 34010KT 04/04 A2997 RMK A01 T00430043  RH  100%=      5-min Rain = 0
KPA1 161431Z 34013KT 04/04 A2997 RMK A01 T00430043  RH  100%=      5-min Rain = 0
KPA1 161432Z 36012KT 04/04 A2997 RMK A01 T00430043  RH  100%=      5-min Rain = 0
KPA1 161433Z 36011KT 04/04 A2997 RMK A01 T00420042  RH  100%=      5-min Rain = 0
KPA1 161434Z 35012KT 04/04 A2997 RMK A01 T00420042  RH  100%=      5-min Rain = 0
KPA1 161435Z 35012KT 04/04 A2997 RMK A01 T00420042  RH  100%=      5-min Rain = 0
KPA1 161436Z 36012KT 04/04 A2997 RMK A01 T00420042  RH  100%=      5-min Rain = 0
KPA1 161437Z 35013KT 04/04 A2997 RMK A01 T00420042  RH  100%=      5-min Rain = 0
KPA1 161438Z 35013KT 04/04 A2997 RMK A01 T00420042  RH  100%=      5-min Rain = 0
KPA1 161439Z 35011KT 04/04 A2997 RMK A01 T00420042  RH  100%=      5-min Rain = 0
KPA1 161440Z 35011KT 04/04 A2997 RMK A01 T00420042  RH  100%=      5-min Rain = 0
KPA1 161441Z 35013KT 04/04 A2997 RMK A01 T00430043  RH  100%=      5-min Rain = 0
KPA1 161442Z 35010KT 04/04 A2997 RMK A01 T00430043  RH  100%=      5-min Rain = 0
KPA1 161443Z 35012KT 04/04 A2997 RMK A01 T00440044  RH  100%=      5-min Rain = 0
KPA1 161444Z 35011KT 04/04 A2997 RMK A01 T00430043  RH  100%=      5-min Rain = 0
KPA1 161445Z 35012KT 04/04 A2997 RMK A01 T00430043  RH  100%=      5-min Rain = 0
KPA1 161446Z 34011KT 04/04 A2998 RMK A01 T00430043  RH  100%=      5-min Rain = 0
KPA1 161447Z 35012KT 04/04 A2998 RMK A01 T00440044  RH  100%=      5-min Rain = 0
KPA1 161448Z 35011KT 04/04 A2998 RMK A01 T00430043  RH  100%=      5-min Rain = 0
KPA1 161449Z 35009KT 04/04 A2998 RMK A01 T00430043  RH  100%=      5-min Rain = 0
KPA1 161450Z 35011KT 04/04 A2998 RMK A01 T00440044  RH  100%=      5-min Rain = 0
KPA1 161451Z 35011KT 05/05 A2998 RMK A01 T00450045  RH  100%=      5-min Rain = 0
KPA1 161452Z 34010KT 04/04 A2998 RMK A01 T00440044  RH  100%=      5-min Rain = 0
KPA1 161453Z 34014KT 05/05 A2998 RMK A01 T00450045  RH  100%=      5-min Rain = 0
KPA1 161454Z 34012KT 05/05 A2998 RMK A01 T00460046  RH  100%=      5-min Rain = 0
KPA1 161455Z 35011KT 05/05 A2998 RMK A01 T00460046  RH  100%=      5-min Rain = 0
KPA1 161456Z 34010KT 05/05 A2998 RMK A01 T00450045  RH  100%=      5-min Rain = 0
KPA1 161457Z 34009KT 05/05 A2998 RMK A01 T00450045  RH  100%=      5-min Rain = 0
KPA1 161458Z 35010KT 05/05 A2998 RMK A01 T00460046  RH  100%=      5-min Rain = 0
KPA1 161459Z 34009KT 05/05 A2998 RMK A01 T00450045  RH  100%=      5-min Rain = 0
KPA1 161500Z 36009KT 05/05 A2998 RMK A01 T00460046  RH  100%=      5-min Rain = 0
KPA1 161501Z 35009KT 05/05 A2998 RMK A01 T00450045  RH  100%=      5-min Rain = 0
KPA1 161502Z 35012KT 05/05 A2998 RMK A01 T00450045  RH  100%=      5-min Rain = 0
KPA1 161503Z 34013KT 05/05 A2998 RMK A01 T00450045  RH  100%=      5-min Rain = 0
KPA1 161504Z 35011KT 05/05 A2998 RMK A01 T00450045  RH  100%=      5-min Rain = 0
KPA1 161505Z 34012KT 05/05 A2998 RMK A01 T00450045  RH  100%=      5-min Rain = 0
KPA1 161506Z 35010KT 05/05 A2998 RMK A01 T00450045  RH  100%=      5-min Rain = 0
KPA1 161507Z 36011KT 05/05 A2998 RMK A01 T00460046  RH  100%=      5-min Rain = 0
KPA1 161508Z 35012KT 05/05 A2998 RMK A01 T00470047  RH  100%=      5-min Rain = 0
KPA1 161509Z 35013KT 05/05 A2998 RMK A01 T00480048  RH  100%=      5-min Rain = 0
KPA1 161510Z 35012KT 05/05 A2998 RMK A01 T00480048  RH  100%=      5-min Rain = 0
KPA1 161511Z 35012KT 05/05 A2998 RMK A01 T00470047  RH  100%=      5-min Rain = 0
KPA1 161512Z 34012KT 05/05 A2998 RMK A01 T00470047  RH  100%=      5-min Rain = 0
KPA1 161513Z 34013KT 05/05 A2998 RMK A01 T00460046  RH  100%=      5-min Rain = 0
KPA1 161514Z 35012KT 05/05 A2998 RMK A01 T00460046  RH  100%=      5-min Rain = 0
KPA1 161515Z 35012KT 05/05 A2998 RMK A01 T00470047  RH  100%=      5-min Rain = 0
KPA1 161516Z 34013KT 05/05 A2998 RMK A01 T00460046  RH  100%=      5-min Rain = 0
KPA1 161517Z 35012KT 05/05 A2998 RMK A01 T00460046  RH  100%=      5-min Rain = 0
KPA1 161518Z 35012KT 05/05 A2998 RMK A01 T00460046  RH  100%=      5-min Rain = 0
KPA1 161519Z 35011KT 05/05 A2998 RMK A01 T00460046  RH  100%=      5-min Rain = 0
KPA1 161520Z 35012KT 05/05 A2998 RMK A01 T00460046  RH  100%=      5-min Rain = 0
KPA1 161521Z 35011KT 05/05 A2998 RMK A01 T00470047  RH  100%=      5-min Rain = 0
KPA1 161522Z 34011KT 05/05 A2998 RMK A01 T00460046  RH  100%=      5-min Rain = 0
KPA1 161523Z 34014KT 05/05 A2998 RMK A01 T00460046  RH  100%=      5-min Rain = 0
KPA1 161524Z 34011KT 05/05 A2998 RMK A01 T00470047  RH  100%=      5-min Rain = 0
KPA1 161525Z 34012KT 05/05 A2998 RMK A01 T00470047  RH  100%=      5-min Rain = 0
KPA1 161526Z 34013KT 05/05 A2998 RMK A01 T00470047  RH  100%=      5-min Rain = 0
KPA1 161527Z 34012KT 05/05 A2998 RMK A01 T00460046  RH  100%=      5-min Rain = 0
KPA1 161528Z 34013KT 05/05 A2998 RMK A01 T00480048  RH  100%=      5-min Rain = 0
KPA1 161529Z 34014KT 05/05 A2998 RMK A01 T00480048  RH  100%=      5-min Rain = 0
KPA1 161530Z 34014KT 05/05 A2998 RMK A01 T00480048  RH  100%=      5-min Rain = 0
KPA1 161531Z 35013KT 05/05 A2999 RMK A01 T00480048  RH  100%=      5-min Rain = 0
KPA1 161532Z 34012KT 05/05 A2999 RMK A01 T00480048  RH  100%=      5-min Rain = 0
KPA1 161533Z 34013KT 05/05 A2999 RMK A01 T00480048  RH  100%=      5-min Rain = 0
KPA1 161534Z 34012KT 05/05 A2999 RMK A01 T00490049  RH  100%=      5-min Rain = 0
KPA1 161535Z 34011KT 05/05 A2999 RMK A01 T00490049  RH  100%=      5-min Rain = 0
KPA1 161536Z 34012KT 05/05 A2999 RMK A01 T00500050  RH  100%=      5-min Rain = 0
KPA1 161537Z 34010KT 05/05 A2999 RMK A01 T00500050  RH  100%=      5-min Rain = 0
KPA1 161538Z 34010KT 05/05 A2999 RMK A01 T00510051  RH  100%=      5-min Rain = 0
KPA1 161539Z 34011KT 05/05 A2999 RMK A01 T00510051  RH  100%=      5-min Rain = 0
KPA1 161540Z 34012KT 05/05 A2999 RMK A01 T00500050  RH  100%=      5-min Rain = 0
KPA1 161541Z 34010KT 05/05 A2999 RMK A01 T00500050  RH  100%=      5-min Rain = 0
KPA1 161542Z 34011KT 05/05 A2999 RMK A01 T00500050  RH  100%=      5-min Rain = 0
KPA1 161543Z 35010KT 05/05 A2999 RMK A01 T00510051  RH  100%=      5-min Rain = 0
KPA1 161544Z 34009KT 05/05 A2999 RMK A01 T00520052  RH  100%=      5-min Rain = 0
KPA1 161545Z 34012KT 05/05 A2999 RMK A01 T00520052  RH  100%=      5-min Rain = 0
KPA1 161546Z 34011KT 05/05 A2999 RMK A01 T00520052  RH  100%=      5-min Rain = 0
KPA1 161547Z 33010KT 05/05 A2999 RMK A01 T00520052  RH  100%=      5-min Rain = 0
KPA1 161548Z 34009KT 05/05 A2999 RMK A01 T00530053  RH  100%=      5-min Rain = 0
KPA1 161549Z 35009KT 05/05 A30 RMK A01 T00530053  RH  100%=      5-min Rain = 0
KPA1 161550Z 35011KT 05/05 A30 RMK A01 T00530053  RH  100%=      5-min Rain = 0
KPA1 161551Z 35012KT 05/05 A30 RMK A01 T00530053  RH  100%=      5-min Rain = 0
KPA1 161552Z 34011KT 05/05 A30 RMK A01 T00520052  RH  100%=      5-min Rain = 0
KPA1 161553Z 33012KT 05/05 A30 RMK A01 T00520052  RH  100%=      5-min Rain = 0
KPA1 161554Z 34013KT 05/05 A30 RMK A01 T00520052  RH  100%=      5-min Rain = 0
KPA1 161555Z 34011KT 05/05 A30 RMK A01 T00510051  RH  100%=      5-min Rain = 0
KPA1 161556Z 35011KT 05/05 A30 RMK A01 T00510051  RH  100%=      5-min Rain = 0
KPA1 161557Z 35012KT 05/05 A30 RMK A01 T00510051  RH  100%=      5-min Rain = 0
KPA1 161558Z 34011KT 05/05 A30 RMK A01 T00500050  RH  100%=      5-min Rain = 0
KPA1 161559Z 35011KT 05/05 A30 RMK A01 T00500050  RH  100%=      5-min Rain = 0
KPA1 161600Z 34011KT 05/05 A30 RMK A01 T00490050  RH  100%=      5-min Rain = 0
KPA1 161601Z 34012KT 05/05 A30 RMK A01 T00500050  RH  100%=      5-min Rain = 0
KPA1 161602Z 34012KT 05/05 A30 RMK A01 T00500050  RH  100%=      5-min Rain = 0
KPA1 161603Z 33010KT 05/05 A30 RMK A01 T00500050  RH  100%=      5-min Rain = 0
KPA1 161604Z 34010KT 05/05 A30 RMK A01 T00510051  RH  100%=      5-min Rain = 0
KPA1 161605Z 33010KT 05/05 A30 RMK A01 T00510051  RH  100%=      5-min Rain = 0
KPA1 161606Z 33013KT 05/05 A30 RMK A01 T00520052  RH  100%=      5-min Rain = 0
KPA1 161607Z 33011KT 05/05 A30 RMK A01 T00510051  RH  100%=      5-min Rain = 0
KPA1 161608Z 34010KT 05/05 A30 RMK A01 T00510051  RH  100%=      5-min Rain = 0
KPA1 161609Z 34009KT 05/05 A30 RMK A01 T00520052  RH  100%=      5-min Rain = 0
KPA1 161610Z 33011KT 05/05 A30 RMK A01 T00530053  RH  100%=      5-min Rain = 0
KPA1 161611Z 33013KT 05/05 A30 RMK A01 T00520052  RH  100%=      5-min Rain = 0
KPA1 161612Z 33013KT 05/05 A30 RMK A01 T00530053  RH  100%=      5-min Rain = 0
KPA1 161613Z 33011KT 05/05 A30 RMK A01 T00530053  RH  100%=      5-min Rain = 0
KPA1 161614Z 32012KT 05/05 A30 RMK A01 T00540054  RH  100%=      5-min Rain = 0
KPA1 161615Z 33011KT 05/05 A30 RMK A01 T00540054  RH  100%=      5-min Rain = 0
KPA1 161616Z 34010KT 06/06 A30 RMK A01 T00550055  RH  100%=      5-min Rain = 0
KPA1 161617Z 33014KT 06/06 A30 RMK A01 T00560056  RH  100%=      5-min Rain = 0
KPA1 161618Z 34010KT 06/06 A30 RMK A01 T00560056  RH  100%=      5-min Rain = 0
KPA1 161619Z 35012KT 06/06 A30 RMK A01 T00560056  RH  100%=      5-min Rain = 0
KPA1 161620Z 34012KT 06/06 A30 RMK A01 T00550055  RH  100%=      5-min Rain = 0
KPA1 161621Z 34011KT 06/06 A30 RMK A01 T00550055  RH  100%=      5-min Rain = 0
KPA1 161622Z 34010KT 06/06 A30 RMK A01 T00550055  RH  100%=      5-min Rain = 0
KPA1 161623Z 34012G18KT 06/06 A30 RMK A01 T00550055  RH  100%=      5-min Rain = 0
KPA1 161624Z 34014KT 05/05 A30 RMK A01 T00540054  RH  100%=      5-min Rain = 0
KPA1 161625Z 34015KT 05/05 A30 RMK A01 T00530053  RH  100%=      5-min Rain = 0
KPA1 161626Z 34014KT 05/05 A30 RMK A01 T00530053  RH  100%=      5-min Rain = 0
KPA1 161627Z 35014KT 05/05 A30 RMK A01 T00530053  RH  100%=      5-min Rain = 0
KPA1 161628Z 34015KT 05/05 A30 RMK A01 T00530053  RH  100%=      5-min Rain = 0
KPA1 161629Z 34015KT 05/05 A30 RMK A01 T00530053  RH  100%=      5-min Rain = 0
KPA1 161630Z 34015KT 05/05 A30 RMK A01 T00530053  RH  100%=      5-min Rain = 0
KPA1 161631Z 34014KT 05/05 A30 RMK A01 T00530053  RH  100%=      5-min Rain = 0
KPA1 161632Z 34015KT 05/05 A30 RMK A01 T00530053  RH  100%=      5-min Rain = 0
KPA1 161633Z 34013KT 05/05 A30 RMK A01 T00530053  RH  100%=      5-min Rain = 0
KPA1 161634Z 33014KT 05/05 A30 RMK A01 T00540054  RH  100%=      5-min Rain = 0
KPA1 161635Z 34015KT 05/05 A30 RMK A01 T00540054  RH  100%=      5-min Rain = 0
KPA1 161636Z 34016KT 05/05 A30 RMK A01 T00540054  RH  100%=      5-min Rain = 0
KPA1 161637Z 34015KT 05/05 A30 RMK A01 T00540054  RH  100%=      5-min Rain = 0
KPA1 161638Z 33015KT 05/05 A30 RMK A01 T00540054  RH  100%=      5-min Rain = 0
KPA1 161639Z 34012KT 05/05 A30 RMK A01 T00540054  RH  100%=      5-min Rain = 0
KPA1 161640Z 35013KT 05/05 A30 RMK A01 T00540054  RH  100%=      5-min Rain = 0
KPA1 161641Z 34012KT 05/05 A30 RMK A01 T00540054  RH  100%=      5-min Rain = 0
KPA1 161642Z 34012KT 05/05 A30 RMK A01 T00540054  RH  100%=      5-min Rain = 0
KPA1 161643Z 35012KT 05/05 A30 RMK A01 T00540054  RH  100%=      5-min Rain = 0
KPA1 161644Z 34013KT 05/05 A30 RMK A01 T00540054  RH  100%=      5-min Rain = 0
KPA1 161645Z 34015KT 05/05 A30 RMK A01 T00540054  RH  100%=      5-min Rain = 0
KPA1 161646Z 34016KT 05/05 A30 RMK A01 T00540054  RH  100%=      5-min Rain = 0
KPA1 161647Z 34014KT 05/05 A30 RMK A01 T00540054  RH  100%=      5-min Rain = 0
KPA1 161648Z 34015KT 06/06 A30 RMK A01 T00550055  RH  100%=      5-min Rain = 0
KPA1 161649Z 34013KT 06/06 A30 RMK A01 T00550055  RH  100%=      5-min Rain = 0
KPA1 161650Z 34017KT 06/06 A30 RMK A01 T00560056  RH  100%=      5-min Rain = 0
KPA1 161651Z 34017KT 06/06 A30 RMK A01 T00560056  RH  100%=      5-min Rain = 0
KPA1 161652Z 34013KT 06/06 A30 RMK A01 T00560056  RH  100%=      5-min Rain = 0
KPA1 161653Z 34012KT 06/06 A30 RMK A01 T00570057  RH  100%=      5-min Rain = 0
KPA1 161654Z 34011KT 06/06 A30 RMK A01 T00570057  RH  100%=      5-min Rain = 0
KPA1 161655Z 34013KT 06/06 A30 RMK A01 T00580058  RH  100%=      5-min Rain = 0
KPA1 161656Z 34013KT 06/06 A30 RMK A01 T00580058  RH  100%=      5-min Rain = 0
KPA1 161657Z 34014KT 06/06 A30 RMK A01 T00580058  RH  100%=      5-min Rain = 0
KPA1 161658Z 35014G19KT 06/06 A30 RMK A01 T00590059  RH  100%=      5-min Rain = 0
KPA1 161659Z 35012KT 06/06 A30 RMK A01 T00580058  RH  100%=      5-min Rain = 0
KPA1 161700Z 35015G21KT 06/06 A30 RMK A01 T00580058  RH  100%=      5-min Rain = 0
KPA1 161701Z 35019KT 06/06 A30 RMK A01 T00570057  RH  100%=      5-min Rain = 0
KPA1 161702Z 35018KT 06/06 A30 RMK A01 T00570057  RH  100%=      5-min Rain = 0
KPA1 161703Z 34015KT 06/06 A30 RMK A01 T00560056  RH  100%=      5-min Rain = 0
KPA1 161704Z 33015KT 06/06 A30 RMK A01 T00570057  RH  100%=      5-min Rain = 0
KPA1 161705Z 34017KT 06/06 A30 RMK A01 T00580057  RH  100%=      5-min Rain = 0
KPA1 161706Z 34014KT 06/06 A30 RMK A01 T00580057  RH  099%=      5-min Rain = 0
KPA1 161707Z 34011KT 06/06 A30 RMK A01 T00580057  RH  099%=      5-min Rain = 0
KPA1 161708Z 34013KT 06/06 A30 RMK A01 T00620062  RH  100%=      5-min Rain = 0
KPA1 161709Z 34015KT 07/06 A30 RMK A01 T00660064  RH  099%=      5-min Rain = 0
KPA1 161710Z 34015KT 07/06 A30 RMK A01 T00680064  RH  097%=      5-min Rain = 0
KPA1 161711Z 34014KT 07/07 A30 RMK A01 T00710067  RH  098%=      5-min Rain = 0
KPA1 161712Z 34016KT 07/07 A30 RMK A01 T00730067  RH  096%=      5-min Rain = 0
KPA1 161713Z 34017KT 07/06 A30 RMK A01 T00720059  RH  091%=      5-min Rain = 0
KPA1 161714Z 34014KT 07/06 A30 RMK A01 T00710055  RH  090%=      5-min Rain = 0
KPA1 161715Z 34016KT 07/05 A30 RMK A01 T00690054  RH  090%=      5-min Rain = 0
KPA1 161716Z 34015KT 07/05 A30 RMK A01 T00690053  RH  090%=      5-min Rain = 0
KPA1 161717Z 35012KT 07/06 A30 RMK A01 T00690055  RH  091%=      5-min Rain = 0
KPA1 161718Z 34013G18KT 07/06 A30 RMK A01 T00690056  RH  091%=      5-min Rain = 0
KPA1 161719Z 34014KT 07/06 A30 RMK A01 T00690055  RH  091%=      5-min Rain = 0
KPA1 161720Z 34017KT 07/05 A30 RMK A01 T00690054  RH  090%=      5-min Rain = 0
KPA1 161721Z 33019KT 07/05 A30 RMK A01 T00680051  RH  089%=      5-min Rain = 0
KPA1 161722Z 34017KT 07/05 A30 RMK A01 T00680049  RH  088%=      5-min Rain = 0
KPA1 161723Z 34017KT 07/05 A30 RMK A01 T00680049  RH  088%=      5-min Rain = 0
KPA1 161724Z 34017G22KT 07/05 A30 RMK A01 T00680048  RH  088%=      5-min Rain = 0
KPA1 161725Z 35017KT 07/05 A30 RMK A01 T00680047  RH  087%=      5-min Rain = 0
KPA1 161726Z 34016KT 07/05 A30 RMK A01 T00690048  RH  087%=      5-min Rain = 0
KPA1 161727Z 34016KT 07/05 A30 RMK A01 T00690049  RH  087%=      5-min Rain = 0
KPA1 161728Z 34021KT 07/05 A30 RMK A01 T00700051  RH  088%=      5-min Rain = 0
KPA1 161729Z 34021KT 07/05 A30 RMK A01 T00700049  RH  087%=      5-min Rain = 0
KPA1 161730Z 35020G26KT 07/05 A30 RMK A01 T00680047  RH  086%=      5-min Rain = 0
KPA1 161731Z 35019KT 07/05 A30 RMK A01 T00680046  RH  086%=      5-min Rain = 0
KPA1 161732Z 34015KT 07/05 A30 RMK A01 T00680046  RH  086%=      5-min Rain = 0
KPA1 161733Z 34015KT 07/05 A30 RMK A01 T00680050  RH  088%=      5-min Rain = 0
KPA1 161734Z 34019KT 07/05 A30 RMK A01 T00690049  RH  087%=      5-min Rain = 0
KPA1 161735Z 33019KT 07/05 A30 RMK A01 T00690047  RH  086%=      5-min Rain = 0
KPA1 161736Z 34019KT 07/05 A30 RMK A01 T00690046  RH  085%=      5-min Rain = 0
KPA1 161737Z 35019G24KT 07/05 A30 RMK A01 T00690047  RH  085%=      5-min Rain = 0
KPA1 161738Z 34017G22KT 07/05 A30 RMK A01 T00700047  RH  085%=      5-min Rain = 0
KPA1 161739Z 34017KT 07/05 A30 RMK A01 T00710047  RH  085%=      5-min Rain = 0
KPA1 161740Z 34019G24KT 07/05 A30 RMK A01 T00720048  RH  085%=      5-min Rain = 0
KPA1 161741Z 35018KT 07/05 A30 RMK A01 T00720049  RH  085%=      5-min Rain = 0
KPA1 161742Z 34019G25KT 07/05 A30 RMK A01 T00720047  RH  084%=      5-min Rain = 0
KPA1 161743Z 33019KT 07/05 A30 RMK A01 T00730047  RH  084%=      5-min Rain = 0
KPA1 161744Z 34016KT 07/05 A3001 RMK A01 T00730049  RH  085%=      5-min Rain = 0
KPA1 161745Z 34018G23KT 07/05 A30 RMK A01 T00730046  RH  083%=      5-min Rain = 0
KPA1 161746Z 34019KT 07/05 A30 RMK A01 T00720045  RH  083%=      5-min Rain = 0
KPA1 161747Z 34019G24KT 07/04 A30 RMK A01 T00710042  RH  082%=      5-min Rain = 0
KPA1 161748Z 34019KT 07/04 A30 RMK A01 T00700042  RH  082%=      5-min Rain = 0
KPA1 161749Z 34020KT 07/04 A30 RMK A01 T00710042  RH  082%=      5-min Rain = 0
KPA1 161750Z 34018KT 07/04 A30 RMK A01 T00730043  RH  081%=      5-min Rain = 0
KPA1 161751Z 35015G22KT 07/04 A30 RMK A01 T00730043  RH  081%=      5-min Rain = 0
KPA1 161752Z 34017KT 08/05 A30 RMK A01 T00750047  RH  083%=      5-min Rain = 0
KPA1 161753Z 34018KT 08/05 A30 RMK A01 T00760047  RH  082%=      5-min Rain = 0
KPA1 161754Z 34019G28KT 08/05 A30 RMK A01 T00750047  RH  082%=      5-min Rain = 0
KPA1 161755Z 35023G28KT 07/04 A3001 RMK A01 T00720042  RH  081%=      5-min Rain = 0
KPA1 161756Z 34020KT 07/04 A3001 RMK A01 T00700040  RH  081%=      5-min Rain = 0
KPA1 161757Z 35017G23KT 07/04 A3001 RMK A01 T00700042  RH  082%=      5-min Rain = 0
KPA1 161758Z 35020KT 07/04 A3001 RMK A01 T00700042  RH  082%=      5-min Rain = 0
KPA1 161759Z 35019KT 07/04 A3001 RMK A01 T00710041  RH  082%=      5-min Rain = 0
KPA1 161800Z 34021KT 07/04 A3001 RMK A01 T00710042  RH  082%=      5-min Rain = 0
KPA1 161801Z 35020KT 07/04 A3001 RMK A01 T00720042  RH  082%=      5-min Rain = 0
KPA1 161802Z 35020KT 07/04 A3001 RMK A01 T00720041  RH  081%=      5-min Rain = 0
KPA1 161803Z 35022KT 07/04 A3001 RMK A01 T00710040  RH  080%=      5-min Rain = 0
KPA1 161804Z 35020KT 07/04 A3001 RMK A01 T00710040  RH  081%=      5-min Rain = 0
KPA1 161805Z 35020G25KT 07/04 A3001 RMK A01 T00710040  RH  081%=      5-min Rain = 0
KPA1 161806Z 35019KT 07/04 A3001 RMK A01 T00710040  RH  080%=      5-min Rain = 0
KPA1 161807Z 34021KT 07/04 A3001 RMK A01 T00710040  RH  081%=      5-min Rain = 0
KPA1 161808Z 34020G26KT 07/04 A3001 RMK A01 T00710038  RH  080%=      5-min Rain = 0
KPA1 161809Z 34021KT 07/04 A3001 RMK A01 T00700039  RH  080%=      5-min Rain = 0
KPA1 161810Z 35022G27KT 07/04 A3001 RMK A01 T00700038  RH  080%=      5-min Rain = 0
KPA1 161811Z 35020G26KT 07/04 A3001 RMK A01 T00700037  RH  080%=      5-min Rain = 0
KPA1 161812Z 34017KT 07/04 A3001 RMK A01 T00700039  RH  081%=      5-min Rain = 0
KPA1 161813Z 34020G25KT 07/04 A3001 RMK A01 T00700038  RH  080%=      5-min Rain = 0
KPA1 161814Z 35018KT 07/04 A3001 RMK A01 T00710039  RH  080%=      5-min Rain = 0
KPA1 161815Z 34020KT 07/04 A3001 RMK A01 T00720039  RH  079%=      5-min Rain = 0
KPA1 161816Z 35018KT 07/04 A30 RMK A01 T00720039  RH  079%=      5-min Rain = 0
KPA1 161817Z 35021G26KT 07/04 A30 RMK A01 T00730040  RH  079%=      5-min Rain = 0
KPA1 161818Z 35022KT 07/04 A30 RMK A01 T00740037  RH  077%=      5-min Rain = 0
KPA1 161819Z 35022KT 07/04 A3001 RMK A01 T00740035  RH  076%=      5-min Rain = 0
KPA1 161820Z 35022KT 08/03 A3001 RMK A01 T00750033  RH  075%=      5-min Rain = 0
KPA1 161821Z 34021KT 08/04 A30 RMK A01 T00770035  RH  075%=      5-min Rain = 0
KPA1 161822Z 34018KT 08/04 A3001 RMK A01 T00780036  RH  075%=      5-min Rain = 0
KPA1 161823Z 34016KT 08/04 A3001 RMK A01 T00800040  RH  076%=      5-min Rain = 0
KPA1 161824Z 34020KT 08/04 A30 RMK A01 T00800036  RH  073%=      5-min Rain = 0
KPA1 161825Z 34020KT 08/04 A30 RMK A01 T00800035  RH  074%=      5-min Rain = 0
KPA1 161826Z 35018KT 08/04 A30 RMK A01 T00800036  RH  074%=      5-min Rain = 0
KPA1 161827Z 35016G21KT 08/04 A3001 RMK A01 T00810038  RH  074%=      5-min Rain = 0
KPA1 161828Z 35017G22KT 08/04 A3001 RMK A01 T00810041  RH  076%=      5-min Rain = 0
KPA1 161829Z 35019G25KT 08/04 A3001 RMK A01 T00800039  RH  076%=      5-min Rain = 0
KPA1 161830Z 33021G26KT 08/04 A3001 RMK A01 T00750037  RH  077%=      5-min Rain = 0
KPA1 161831Z 34023KT 07/04 A3001 RMK A01 T00710037  RH  079%=      5-min Rain = 0
KPA1 161832Z 34023KT 07/04 A3001 RMK A01 T00670035  RH  080%=      5-min Rain = 0
KPA1 161833Z 34021KT 06/03 A3001 RMK A01 T00640034  RH  081%=      5-min Rain = 0
KPA1 161834Z 35021KT 06/04 A3001 RMK A01 T00640037  RH  083%=      5-min Rain = 0
KPA1 161835Z 35022KT 07/04 A3001 RMK A01 T00650036  RH  082%=      5-min Rain = 0
KPA1 161836Z 34025KT 06/03 A3001 RMK A01 T00640033  RH  080%=      5-min Rain = 0
KPA1 161837Z 34021G27KT 06/03 A3001 RMK A01 T00630033  RH  081%=      5-min Rain = 0
KPA1 161838Z 34018KT 06/04 A3001 RMK A01 T00620035  RH  083%=      5-min Rain = 0
KPA1 161839Z 34020KT 06/04 A3001 RMK A01 T00630035  RH  082%=      5-min Rain = 0
KPA1 161840Z 35021KT 06/03 A3001 RMK A01 T00630034  RH  082%=      5-min Rain = 0
KPA1 161841Z 35021G26KT 06/04 A3001 RMK A01 T00630036  RH  083%=      5-min Rain = 0
KPA1 161842Z 35017G22KT 06/04 A3001 RMK A01 T00630037  RH  083%=      5-min Rain = 0
KPA1 161843Z 35017KT 07/04 A3001 RMK A01 T00660041  RH  084%=      5-min Rain = 0
KPA1 161844Z 35017KT 07/04 A3001 RMK A01 T00670040  RH  083%=      5-min Rain = 0
KPA1 161845Z 34019KT 07/04 A3001 RMK A01 T00670039  RH  082%=      5-min Rain = 0
KPA1 161846Z 34015G20KT 07/04 A3001 RMK A01 T00700044  RH  083%=      5-min Rain = 0
KPA1 161847Z 35017KT 08/05 A3001 RMK A01 T00760046  RH  081%=      5-min Rain = 0
KPA1 161848Z 34020KT 08/04 A3001 RMK A01 T00790043  RH  078%=      5-min Rain = 0
KPA1 161849Z 34019KT 08/04 A3001 RMK A01 T00800038  RH  075%=      5-min Rain = 0
KPA1 161850Z 34018KT 08/04 A3001 RMK A01 T00800038  RH  075%=      5-min Rain = 0
KPA1 161851Z 35019KT 08/04 A3001 RMK A01 T00820042  RH  076%=      5-min Rain = 0
KPA1 161852Z 35020KT 08/04 A3001 RMK A01 T00820036  RH  073%=      5-min Rain = 0
KPA1 161853Z 35018KT 08/04 A3001 RMK A01 T00800036  RH  074%=      5-min Rain = 0
KPA1 161854Z 34021G26KT 08/04 A3001 RMK A01 T00820037  RH  073%=      5-min Rain = 0
KPA1 161855Z 35020KT 08/03 A3001 RMK A01 T00810032  RH  071%=      5-min Rain = 0
KPA1 161856Z 34017G27KT 08/03 A3001 RMK A01 T00790033  RH  073%=      5-min Rain = 0
KPA1 161857Z 34019G25KT 08/03 A3001 RMK A01 T00800033  RH  072%=      5-min Rain = 0
KPA1 161858Z 35022KT 08/03 A3001 RMK A01 T00830033  RH  071%=      5-min Rain = 0
KPA1 161859Z 35020KT 08/03 A3001 RMK A01 T00840034  RH  071%=      5-min Rain = 0
KPA1 161900Z 35020KT 08/03 A3001 RMK A01 T00840031  RH  069%=      5-min Rain = 0
KPA1 161901Z 35017G25KT 09/04 A3001 RMK A01 T00850035  RH  071%=      5-min Rain = 0
KPA1 161902Z 34018KT 09/04 A3001 RMK A01 T00900041  RH  071%=      5-min Rain = 0
KPA1 161903Z 34021KT 09/04 A3001 RMK A01 T00910035  RH  068%=      5-min Rain = 0
KPA1 161904Z 36021G26KT 09/03 A3001 RMK A01 T00850028  RH  067%=      5-min Rain = 0
KPA1 161905Z 35020KT 08/03 A3002 RMK A01 T00830027  RH  068%=      5-min Rain = 0
KPA1 161906Z 34018KT 09/03 A3002 RMK A01 T00860027  RH  066%=      5-min Rain = 0
KPA1 161907Z 34020KT 09/03 A3001 RMK A01 T00920031  RH  066%=      5-min Rain = 0
KPA1 161908Z 34020KT 09/03 A3001 RMK A01 T00930026  RH  063%=      5-min Rain = 0
KPA1 161909Z 34025G30KT 09/02 A3001 RMK A01 T00900022  RH  062%=      5-min Rain = 0
KPA1 161910Z 34025KT 09/02 A3002 RMK A01 T00860019  RH  063%=      5-min Rain = 0
KPA1 161911Z 34023G28KT 09/02 A3002 RMK A01 T00850020  RH  064%=      5-min Rain = 0
KPA1 161912Z 34022G28KT 09/02 A3001 RMK A01 T00850022  RH  064%=      5-min Rain = 0
KPA1 161913Z 34022KT 09/02 A3001 RMK A01 T00860022  RH  064%=      5-min Rain = 0
KPA1 161914Z 35019G24KT 08/02 A3002 RMK A01 T00840022  RH  065%=      5-min Rain = 0
KPA1 161915Z 35019KT 08/02 A3002 RMK A01 T00840023  RH  065%=      5-min Rain = 0
KPA1 161916Z 35018KT 08/02 A3002 RMK A01 T00830022  RH  066%=      5-min Rain = 0
KPA1 161917Z 35021G26KT 08/02 A3002 RMK A01 T00820023  RH  066%=      5-min Rain = 0
KPA1 161918Z 34020KT 08/03 A3002 RMK A01 T00810026  RH  068%=      5-min Rain = 0
KPA1 161919Z 35020G25KT 08/03 A3002 RMK A01 T00820027  RH  068%=      5-min Rain = 0
KPA1 161920Z 35018KT 08/02 A3002 RMK A01 T00810024  RH  067%=      5-min Rain = 0
KPA1 161921Z 35020G25KT 08/03 A3002 RMK A01 T00800025  RH  068%=      5-min Rain = 0
KPA1 161922Z 34017G22KT 08/03 A3002 RMK A01 T00800027  RH  069%=      5-min Rain = 0
KPA1 161923Z 34018KT 08/03 A3002 RMK A01 T00800030  RH  070%=      5-min Rain = 0
KPA1 161924Z 33021KT 08/03 A3002 RMK A01 T00800028  RH  070%=      5-min Rain = 0
KPA1 161925Z 33019G24KT 08/03 A3002 RMK A01 T00770027  RH  070%=      5-min Rain = 0
KPA1 161926Z 33019KT 08/03 A3002 RMK A01 T00760027  RH  071%=      5-min Rain = 0
KPA1 161927Z 34019KT 08/03 A3002 RMK A01 T00760027  RH  071%=      5-min Rain = 0
KPA1 161928Z 34018G23KT 08/03 A3002 RMK A01 T00760026  RH  070%=      5-min Rain = 0
KPA1 161929Z 33019G24KT 08/03 A3002 RMK A01 T00750025  RH  070%=      5-min Rain = 0
KPA1 161930Z 34017KT 08/03 A3003 RMK A01 T00750025  RH  071%=      5-min Rain = 0
KPA1 161931Z 34021KT 08/03 A3002 RMK A01 T00750025  RH  071%=      5-min Rain = 0
KPA1 161932Z 34021KT 07/02 A3002 RMK A01 T00740024  RH  071%=      5-min Rain = 0
KPA1 161933Z 34018KT 07/03 A3003 RMK A01 T00730026  RH  072%=      5-min Rain = 0
KPA1 161934Z 33019KT 07/03 A3003 RMK A01 T00740025  RH  071%=      5-min Rain = 0
KPA1 161935Z 34020KT 07/02 A3003 RMK A01 T00740024  RH  071%=      5-min Rain = 0
KPA1 161936Z 34019KT 07/02 A3003 RMK A01 T00740024  RH  071%=      5-min Rain = 0
KPA1 161937Z 33017KT 07/03 A3003 RMK A01 T00740025  RH  071%=      5-min Rain = 0
KPA1 161938Z 34022KT 07/03 A3003 RMK A01 T00740025  RH  071%=      5-min Rain = 0
KPA1 161939Z 33021G26KT 07/02 A3003 RMK A01 T00740023  RH  070%=      5-min Rain = 0
KPA1 161940Z 33021KT 07/02 A3003 RMK A01 T00730023  RH  070%=      5-min Rain = 0
KPA1 161941Z 34020KT 07/02 A3003 RMK A01 T00730023  RH  071%=      5-min Rain = 0
KPA1 161942Z 34022G27KT 07/02 A3003 RMK A01 T00730023  RH  071%=      5-min Rain = 0
KPA1 161943Z 34019KT 07/02 A3003 RMK A01 T00720022  RH  071%=      5-min Rain = 0
KPA1 161944Z 34019KT 07/02 A3003 RMK A01 T00720023  RH  071%=      5-min Rain = 0
KPA1 161945Z 34018G23KT 07/02 A3003 RMK A01 T00720023  RH  071%=      5-min Rain = 0
KPA1 161946Z 34023KT 07/02 A3003 RMK A01 T00720020  RH  070%=      5-min Rain = 0
KPA1 161947Z 34024G29KT 07/02 A3003 RMK A01 T00710018  RH  069%=      5-min Rain = 0
KPA1 161948Z 34023KT 07/02 A3003 RMK A01 T00710019  RH  069%=      5-min Rain = 0
KPA1 161949Z 34023KT 07/02 A3003 RMK A01 T00710020  RH  070%=      5-min Rain = 0
KPA1 161950Z 34022G27KT 07/02 A3003 RMK A01 T00710019  RH  069%=      5-min Rain = 0
KPA1 161951Z 33022KT 07/02 A3003 RMK A01 T00710019  RH  070%=      5-min Rain = 0
KPA1 161952Z 34022KT 07/02 A3003 RMK A01 T00720021  RH  070%=      5-min Rain = 0
KPA1 161953Z 33019KT 07/02 A3003 RMK A01 T00740021  RH  069%=      5-min Rain = 0
KPA1 161954Z 33020G25KT 07/02 A3003 RMK A01 T00740021  RH  069%=      5-min Rain = 0
KPA1 161955Z 34023G28KT 07/02 A3003 RMK A01 T00730019  RH  068%=      5-min Rain = 0
KPA1 161956Z 34021KT 07/02 A3003 RMK A01 T00710018  RH  069%=      5-min Rain = 0
KPA1 161957Z 34023G28KT 07/02 A3003 RMK A01 T00700019  RH  070%=      5-min Rain = 0
KPA1 161958Z 33025KT 07/02 A3003 RMK A01 T00700021  RH  071%=      5-min Rain = 0
KPA1 161959Z 34024KT 07/02 A3003 RMK A01 T00710023  RH  072%=      5-min Rain = 0
KPA1 162000Z 34021G26KT 07/02 A3003 RMK A01 T00730024  RH  071%=      5-min Rain = 0
KPA1 162001Z 34023G29KT 08/03 A3003 RMK A01 T00750025  RH  071%=      5-min Rain = 0
KPA1 162002Z 34023G28KT 08/02 A3003 RMK A01 T00750023  RH  069%=      5-min Rain = 0
KPA1 162003Z 33022KT 08/02 A3003 RMK A01 T00750023  RH  070%=      5-min Rain = 0
KPA1 162004Z 34021KT 08/02 A3003 RMK A01 T00750024  RH  070%=      5-min Rain = 0
KPA1 162005Z 34021G26KT 07/02 A3003 RMK A01 T00740023  RH  070%=      5-min Rain = 0
KPA1 162006Z 34019G25KT 07/02 A3003 RMK A01 T00720022  RH  070%=      5-min Rain = 0
KPA1 162007Z 33019G24KT 07/02 A3003 RMK A01 T00730024  RH  071%=      5-min Rain = 0
KPA1 162008Z 34023KT 07/02 A3003 RMK A01 T00740023  RH  070%=      5-min Rain = 0
KPA1 162009Z 34024G29KT 08/03 A3003 RMK A01 T00750025  RH  071%=      5-min Rain = 0
KPA1 162010Z 34026G31KT 08/02 A3003 RMK A01 T00750021  RH  069%=      5-min Rain = 0
KPA1 162011Z 34024G29KT 07/02 A3004 RMK A01 T00700017  RH  069%=      5-min Rain = 0
KPA1 162012Z 33023KT 07/02 A3004 RMK A01 T00670018  RH  071%=      5-min Rain = 0
KPA1 162013Z 34022KT 07/02 A3004 RMK A01 T00660019  RH  072%=      5-min Rain = 0
KPA1 162014Z 34020KT 07/02 A3004 RMK A01 T00660020  RH  072%=      5-min Rain = 0
KPA1 162015Z 33020KT 07/02 A3004 RMK A01 T00660020  RH  073%=      5-min Rain = 0
KPA1 162016Z 34022KT 07/02 A3004 RMK A01 T00660020  RH  072%=      5-min Rain = 0
KPA1 162017Z 34024KT 07/02 A3004 RMK A01 T00650019  RH  072%=      5-min Rain = 0
KPA1 162018Z 33020KT 06/02 A3004 RMK A01 T00640020  RH  073%=      5-min Rain = 0
KPA1 162019Z 33022G27KT 07/02 A3004 RMK A01 T00650020  RH  073%=      5-min Rain = 0
KPA1 162020Z 34020KT 07/02 A3004 RMK A01 T00650018  RH  072%=      5-min Rain = 0
KPA1 162021Z 35017KT 07/02 A3004 RMK A01 T00670023  RH  073%=      5-min Rain = 0
KPA1 162022Z 34020KT 07/02 A3004 RMK A01 T00690020  RH  071%=      5-min Rain = 0
KPA1 162023Z 34017KT 07/02 A3004 RMK A01 T00690020  RH  071%=      5-min Rain = 0
KPA1 162024Z 34018G25KT 07/02 A3004 RMK A01 T00700020  RH  071%=      5-min Rain = 0
KPA1 162025Z 34018KT 07/02 A3004 RMK A01 T00680017  RH  070%=      5-min Rain = 0
KPA1 162026Z 34019G25KT 07/02 A3004 RMK A01 T00670019  RH  071%=      5-min Rain = 0
KPA1 162027Z 34015KT 07/02 A3004 RMK A01 T00670021  RH  073%=      5-min Rain = 0
KPA1 162028Z 34021KT 07/02 A3004 RMK A01 T00680020  RH  072%=      5-min Rain = 0
KPA1 162029Z 34018KT 07/02 A3004 RMK A01 T00650016  RH  071%=      5-min Rain = 0
KPA1 162030Z 34019KT 07/02 A3004 RMK A01 T00650018  RH  072%=      5-min Rain = 0
KPA1 162031Z 34015KT 07/02 A3004 RMK A01 T00650019  RH  073%=      5-min Rain = 0
KPA1 162032Z 33020G25KT 07/02 A3004 RMK A01 T00650018  RH  072%=      5-min Rain = 0
KPA1 162033Z 34021KT 06/02 A3004 RMK A01 T00640016  RH  072%=      5-min Rain = 0
KPA1 162034Z 34021KT 06/02 A3004 RMK A01 T00630016  RH  072%=      5-min Rain = 0
KPA1 162035Z 34021G26KT 06/01 A3004 RMK A01 T00620013  RH  071%=      5-min Rain = 0
KPA1 162036Z 34018KT 06/02 A3004 RMK A01 T00620015  RH  072%=      5-min Rain = 0
KPA1 162037Z 35015G20KT 07/02 A3004 RMK A01 T00650018  RH  072%=      5-min Rain = 0
KPA1 162038Z 35014KT 07/02 A3004 RMK A01 T00680020  RH  071%=      5-min Rain = 0
KPA1 162039Z 34018G25KT 07/02 A3004 RMK A01 T00700020  RH  070%=      5-min Rain = 0
KPA1 162040Z 34022G27KT 07/01 A3003 RMK A01 T00690014  RH  068%=      5-min Rain = 0
KPA1 162041Z 34019KT 07/01 A3004 RMK A01 T00660014  RH  069%=      5-min Rain = 0
KPA1 162042Z 33019G24KT 07/01 A3004 RMK A01 T00650014  RH  070%=      5-min Rain = 0
KPA1 162043Z 34017KT 06/02 A3004 RMK A01 T00640015  RH  070%=      5-min Rain = 0
KPA1 162044Z 34015KT 06/02 A3004 RMK A01 T00640015  RH  071%=      5-min Rain = 0
KPA1 162045Z 34019G26KT 06/02 A3004 RMK A01 T00640016  RH  071%=      5-min Rain = 0
KPA1 162046Z 34022KT 06/02 A3004 RMK A01 T00640015  RH  071%=      5-min Rain = 0
KPA1 162047Z 33022G27KT 06/01 A3004 RMK A01 T00630014  RH  071%=      5-min Rain = 0
KPA1 162048Z 34022KT 06/01 A3004 RMK A01 T00630014  RH  071%=      5-min Rain = 0
KPA1 162049Z 33019KT 06/01 A3004 RMK A01 T00620014  RH  071%=      5-min Rain = 0
KPA1 162050Z 33021KT 06/01 A3004 RMK A01 T00620014  RH  072%=      5-min Rain = 0
KPA1 162051Z 34018KT 06/02 A3004 RMK A01 T00620015  RH  072%=      5-min Rain = 0
KPA1 162052Z 34019G24KT 06/02 A3004 RMK A01 T00620015  RH  072%=      5-min Rain = 0
KPA1 162053Z 35019KT 06/02 A3004 RMK A01 T00620016  RH  073%=      5-min Rain = 0
KPA1 162054Z 34022KT 06/02 A3004 RMK A01 T00610015  RH  072%=      5-min Rain = 0
KPA1 162055Z 35020G27KT 06/02 A3004 RMK A01 T00600015  RH  073%=      5-min Rain = 0
KPA1 162056Z 35018KT 06/02 A3004 RMK A01 T00600016  RH  073%=      5-min Rain = 0
KPA1 162057Z 36021KT 06/02 A3004 RMK A01 T00610016  RH  073%=      5-min Rain = 0
KPA1 162058Z 35022KT 06/01 A3004 RMK A01 T00610014  RH  072%=      5-min Rain = 0
KPA1 162059Z 35021G26KT 06/01 A3004 RMK A01 T00610013  RH  071%=      5-min Rain = 0
KPA1 162100Z 34021KT 06/01 A3004 RMK A01 T00610013  RH  072%=      5-min Rain = 0
KPA1 162101Z 34017G22KT 06/01 A3004 RMK A01 T00610013  RH  071%=      5-min Rain = 0
KPA1 162102Z 34020KT 06/02 A3004 RMK A01 T00610015  RH  072%=      5-min Rain = 0
KPA1 162103Z 35021G26KT 06/01 A3004 RMK A01 T00610014  RH  071%=      5-min Rain = 0
KPA1 162104Z 34021KT 06/01 A3004 RMK A01 T00590012  RH  072%=      5-min Rain = 0
KPA1 162105Z 34020G25KT 06/01 A3004 RMK A01 T00590013  RH  072%=      5-min Rain = 0
KPA1 162106Z 34020KT 06/01 A3004 RMK A01 T00590013  RH  072%=      5-min Rain = 0
KPA1 162107Z 34020G25KT 06/01 A3004 RMK A01 T00590013  RH  072%=      5-min Rain = 0
KPA1 162108Z 36024KT 06/01 A3004 RMK A01 T00590013  RH  072%=      5-min Rain = 0
KPA1 162109Z 35019G25KT 06/01 A3004 RMK A01 T00590011  RH  071%=      5-min Rain = 0
KPA1 162110Z 34018KT 06/01 A3004 RMK A01 T00590012  RH  072%=      5-min Rain = 0
KPA1 162111Z 34019G24KT 06/01 A3004 RMK A01 T00600014  RH  072%=      5-min Rain = 0
KPA1 162112Z 34020G25KT 06/01 A3004 RMK A01 T00600013  RH  072%=      5-min Rain = 0
KPA1 162113Z 35020G25KT 06/01 A3004 RMK A01 T00600012  RH  071%=      5-min Rain = 0
KPA1 162114Z 35019G25KT 06/01 A3004 RMK A01 T00580011  RH  072%=      5-min Rain = 0
KPA1 162115Z 35018KT 06/01 A3004 RMK A01 T00580013  RH  073%=      5-min Rain = 0
KPA1 162116Z 35021KT 06/01 A3005 RMK A01 T00590014  RH  073%=      5-min Rain = 0
KPA1 162117Z 36018KT 06/01 A3004 RMK A01 T00590014  RH  073%=      5-min Rain = 0
KPA1 162118Z 35014KT 06/02 A3004 RMK A01 T00590017  RH  074%=      5-min Rain = 0
KPA1 162119Z 35018G23KT 06/02 A3004 RMK A01 T00610018  RH  074%=      5-min Rain = 0
KPA1 162120Z 35016G21KT 06/02 A3004 RMK A01 T00610017  RH  073%=      5-min Rain = 0
KPA1 162121Z 35017KT 06/02 A3004 RMK A01 T00610016  RH  073%=      5-min Rain = 0
KPA1 162122Z 34021KT 06/02 A3004 RMK A01 T00610015  RH  072%=      5-min Rain = 0
KPA1 162123Z 35018G23KT 06/01 A3004 RMK A01 T00590013  RH  072%=      5-min Rain = 0
KPA1 162124Z 36021KT 06/02 A3005 RMK A01 T00590015  RH  073%=      5-min Rain = 0
KPA1 162125Z 35019KT 06/02 A3005 RMK A01 T00590015  RH  073%=      5-min Rain = 0
KPA1 162126Z 35016G21KT 06/02 A3005 RMK A01 T00590016  RH  074%=      5-min Rain = 0
KPA1 162127Z 34018KT 06/02 A3005 RMK A01 T00600016  RH  073%=      5-min Rain = 0
KPA1 162128Z 34017G22KT 06/02 A3004 RMK A01 T00610016  RH  073%=      5-min Rain = 0
KPA1 162129Z 34019G24KT 06/02 A3004 RMK A01 T00630015  RH  071%=      5-min Rain = 0
KPA1 162130Z 35015KT 06/01 A3004 RMK A01 T00640014  RH  071%=      5-min Rain = 0
KPA1 162131Z 36019G24KT 07/02 A3004 RMK A01 T00650016  RH  071%=      5-min Rain = 0
KPA1 162132Z 35018G25KT 07/02 A3004 RMK A01 T00660016  RH  070%=      5-min Rain = 0
KPA1 162133Z 35019KT 07/01 A3004 RMK A01 T00650014  RH  070%=      5-min Rain = 0
KPA1 162134Z 34019KT 06/01 A3004 RMK A01 T00640013  RH  070%=      5-min Rain = 0
KPA1 162135Z 35016G21KT 06/01 A3004 RMK A01 T00630014  RH  071%=      5-min Rain = 0
KPA1 162136Z 35015G20KT 06/01 A3004 RMK A01 T00630014  RH  071%=      5-min Rain = 0
KPA1 162137Z 34019G25KT 06/01 A3004 RMK A01 T00630014  RH  071%=      5-min Rain = 0
KPA1 162138Z 34018G23KT 06/01 A3004 RMK A01 T00630014  RH  071%=      5-min Rain = 0
KPA1 162139Z 34020KT 06/01 A3004 RMK A01 T00630013  RH  070%=      5-min Rain = 0
KPA1 162140Z 34021KT 06/01 A3004 RMK A01 T00610011  RH  071%=      5-min Rain = 0
KPA1 162141Z 35018KT 06/01 A3004 RMK A01 T00600012  RH  071%=      5-min Rain = 0
KPA1 162142Z 35019KT 06/01 A3005 RMK A01 T00600013  RH  072%=      5-min Rain = 0
KPA1 162143Z 34017KT 06/01 A3005 RMK A01 T00600013  RH  072%=      5-min Rain = 0
KPA1 162144Z 35016KT 06/01 A3005 RMK A01 T00600014  RH  072%=      5-min Rain = 0
KPA1 162145Z 35020G27KT 06/01 A3005 RMK A01 T00600013  RH  072%=      5-min Rain = 0
KPA1 162146Z 36020KT 06/01 A3005 RMK A01 T00600012  RH  071%=      5-min Rain = 0
KPA1 162147Z 35017G23KT 06/01 A3005 RMK A01 T00600013  RH  072%=      5-min Rain = 0
KPA1 162148Z 35016KT 06/01 A3005 RMK A01 T00600014  RH  072%=      5-min Rain = 0
KPA1 162149Z 35018KT 06/01 A3005 RMK A01 T00610014  RH  072%=      5-min Rain = 0
KPA1 162150Z 35017KT 06/01 A3005 RMK A01 T00610013  RH  071%=      5-min Rain = 0
KPA1 162151Z 34019G24KT 06/01 A3005 RMK A01 T00620013  RH  071%=      5-min Rain = 0
KPA1 162152Z 35021G26KT 06/01 A3005 RMK A01 T00610011  RH  070%=      5-min Rain = 0
KPA1 162153Z 34019KT 06/01 A3005 RMK A01 T00600012  RH  071%=      5-min Rain = 0
KPA1 162154Z 34018KT 06/01 A3005 RMK A01 T00600012  RH  071%=      5-min Rain = 0
KPA1 162155Z 35020KT 06/01 A3005 RMK A01 T00600013  RH  072%=      5-min Rain = 0
KPA1 162156Z 34018KT 06/01 A3005 RMK A01 T00600013  RH  072%=      5-min Rain = 0
KPA1 162157Z 34016KT 06/01 A3005 RMK A01 T00610014  RH  072%=      5-min Rain = 0
KPA1 162158Z 34016KT 06/01 A3005 RMK A01 T00620014  RH  072%=      5-min Rain = 0
KPA1 162159Z 35017KT 06/01 A3005 RMK A01 T00620014  RH  072%=      5-min Rain = 0
KPA1 162200Z 34017KT 06/01 A3005 RMK A01 T00620014  RH  071%=      5-min Rain = 0
KPA1 162201Z 34019G25KT 06/01 A3005 RMK A01 T00620012  RH  070%=      5-min Rain = 0
KPA1 162202Z 34020G25KT 06/01 A3005 RMK A01 T00610012  RH  071%=      5-min Rain = 0
KPA1 162203Z 34022G27KT 06/01 A3005 RMK A01 T00600011  RH  071%=      5-min Rain = 0
KPA1 162204Z 35019G24KT 06/01 A3005 RMK A01 T00590012  RH  072%=      5-min Rain = 0
KPA1 162205Z 36021KT 06/01 A3005 RMK A01 T00600012  RH  072%=      5-min Rain = 0
KPA1 162206Z 35023G28KT 06/01 A3005 RMK A01 T00600012  RH  071%=      5-min Rain = 0
KPA1 162207Z 35021KT 06/01 A3005 RMK A01 T00590010  RH  071%=      5-min Rain = 0
KPA1 162208Z 35020KT 06/01 A3005 RMK A01 T00590009  RH  070%=      5-min Rain = 0
KPA1 162209Z 36019KT 06/01 A3005 RMK A01 T00590010  RH  071%=      5-min Rain = 0
KPA1 162210Z 35019G25KT 06/01 A3005 RMK A01 T00590011  RH  071%=      5-min Rain = 0
KPA1 162211Z 35021KT 06/01 A3005 RMK A01 T00590009  RH  070%=      5-min Rain = 0
KPA1 162212Z 35019KT 06/01 A3006 RMK A01 T00580009  RH  071%=      5-min Rain = 0
KPA1 162213Z 34020KT 06/01 A3005 RMK A01 T00580010  RH  071%=      5-min Rain = 0
KPA1 162214Z 34017KT 06/01 A3006 RMK A01 T00590011  RH  071%=      5-min Rain = 0
KPA1 162215Z 34018KT 06/01 A3005 RMK A01 T00590010  RH  071%=      5-min Rain = 0
KPA1 162216Z 35018G23KT 06/01 A3006 RMK A01 T00590010  RH  071%=      5-min Rain = 0
KPA1 162217Z 36018KT 06/01 A3006 RMK A01 T00590010  RH  071%=      5-min Rain = 0
KPA1 162218Z 36022G27KT 06/01 A3006 RMK A01 T00590009  RH  070%=      5-min Rain = 0
KPA1 162219Z 35020KT 06/01 A3006 RMK A01 T00580008  RH  070%=      5-min Rain = 0
KPA1 162220Z 36019KT 06/01 A3006 RMK A01 T00580009  RH  071%=      5-min Rain = 0
KPA1 162221Z 36015KT 06/01 A3006 RMK A01 T00570010  RH  071%=      5-min Rain = 0
KPA1 162222Z 36014KT 06/01 A3006 RMK A01 T00580011  RH  072%=      5-min Rain = 0
KPA1 162223Z 35014KT 06/01 A3006 RMK A01 T00590012  RH  072%=      5-min Rain = 0
KPA1 162224Z 36015KT 06/01 A3006 RMK A01 T00590012  RH  072%=      5-min Rain = 0
KPA1 162225Z 35014KT 06/01 A3006 RMK A01 T00590012  RH  072%=      5-min Rain = 0
KPA1 162226Z 35014G20KT 06/01 A3006 RMK A01 T00590013  RH  072%=      5-min Rain = 0
KPA1 162227Z 35020KT 06/01 A3006 RMK A01 T00590011  RH  071%=      5-min Rain = 0
KPA1 162228Z 35020G26KT 06/01 A3006 RMK A01 T00590009  RH  070%=      5-min Rain = 0
KPA1 162229Z 35018KT 06/01 A3006 RMK A01 T00590008  RH  070%=      5-min Rain = 0
KPA1 162230Z 35018KT 06/01 A3006 RMK A01 T00590008  RH  070%=      5-min Rain = 0
KPA1 162231Z 35020G25KT 06/01 A3006 RMK A01 T00590007  RH  069%=      5-min Rain = 0
KPA1 162232Z 35020KT 06/01 A3006 RMK A01 T00590008  RH  070%=      5-min Rain = 0
KPA1 162233Z 35020G25KT 06/01 A3006 RMK A01 T00590009  RH  070%=      5-min Rain = 0
KPA1 162234Z 35018G24KT 06/01 A3006 RMK A01 T00590009  RH  070%=      5-min Rain = 0
KPA1 162235Z 35021KT 06/01 A3006 RMK A01 T00590008  RH  070%=      5-min Rain = 0
KPA1 162236Z 35017KT 06/01 A3006 RMK A01 T00580008  RH  070%=      5-min Rain = 0
KPA1 162237Z 35019G24KT 06/01 A3007 RMK A01 T00580009  RH  071%=      5-min Rain = 0
KPA1 162238Z 34021G26KT 06/01 A3006 RMK A01 T00580008  RH  070%=      5-min Rain = 0
KPA1 162239Z 34019KT 06/01 A3006 RMK A01 T00580008  RH  070%=      5-min Rain = 0
KPA1 162240Z 35019KT 06/01 A3007 RMK A01 T00580009  RH  071%=      5-min Rain = 0
KPA1 162241Z 36016KT 06/01 A3007 RMK A01 T00590010  RH  071%=      5-min Rain = 0
KPA1 162242Z 35016KT 06/01 A3007 RMK A01 T00590010  RH  070%=      5-min Rain = 0
KPA1 162243Z 34020KT 06/01 A3007 RMK A01 T00590010  RH  070%=      5-min Rain = 0
KPA1 162244Z 34017KT 06/01 A3007 RMK A01 T00590008  RH  070%=      5-min Rain = 0
KPA1 162245Z 35017KT 06/01 A3007 RMK A01 T00580009  RH  071%=      5-min Rain = 0
KPA1 162246Z 35014KT 06/01 A3007 RMK A01 T00590011  RH  071%=      5-min Rain = 0
KPA1 162247Z 35017G23KT 06/01 A3007 RMK A01 T00590011  RH  071%=      5-min Rain = 0
KPA1 162248Z 35015KT 06/01 A3007 RMK A01 T00590011  RH  071%=      5-min Rain = 0
KPA1 162249Z 36016G21KT 06/01 A3007 RMK A01 T00590010  RH  071%=      5-min Rain = 0
KPA1 162250Z 35019G24KT 06/01 A3007 RMK A01 T00580010  RH  071%=      5-min Rain = 0
KPA1 162251Z 35022KT 06/01 A3007 RMK A01 T00580009  RH  071%=      5-min Rain = 0
KPA1 162252Z 35021KT 06/01 A3007 RMK A01 T00570008  RH  071%=      5-min Rain = 0
KPA1 162253Z 35019G25KT 06/01 A3007 RMK A01 T00560008  RH  071%=      5-min Rain = 0
KPA1 162254Z 35019KT 06/01 A3007 RMK A01 T00560008  RH  071%=      5-min Rain = 0
KPA1 162255Z 35017KT 06/01 A3007 RMK A01 T00560008  RH  071%=      5-min Rain = 0
KPA1 162256Z 35017KT 06/01 A3007 RMK A01 T00570008  RH  071%=      5-min Rain = 0
KPA1 162257Z 35018KT 06/01 A3007 RMK A01 T00570008  RH  071%=      5-min Rain = 0
KPA1 162258Z 36020KT 06/01 A3007 RMK A01 T00580007  RH  070%=      5-min Rain = 0
KPA1 162259Z 36017G22KT 06/01 A3007 RMK A01 T00570006  RH  069%=      5-min Rain = 0
KPA1 162300Z 00017KT 06/01 A3007 RMK A01 T00580007  RH  070%=      5-min Rain = 0
KPA1 162301Z 36016KT 06/01 A3007 RMK A01 T00580006  RH  069%=      5-min Rain = 0
KPA1 162302Z 35017G22KT 06/01 A3007 RMK A01 T00580007  RH  070%=      5-min Rain = 0
KPA1 162303Z 35019KT 06/01 A3007 RMK A01 T00590007  RH  069%=      5-min Rain = 0
KPA1 162304Z 35018G23KT 06/01 A3007 RMK A01 T00580005  RH  069%=      5-min Rain = 0
KPA1 162305Z 36017G26KT 06/01 A3007 RMK A01 T00570006  RH  069%=      5-min Rain = 0
KPA1 162306Z 00020KT 06/01 A3008 RMK A01 T00570006  RH  070%=      5-min Rain = 0
KPA1 162307Z 36020KT 06/01 A3008 RMK A01 T00570006  RH  070%=      5-min Rain = 0
KPA1 162308Z 35016KT 06/01 A3007 RMK A01 T00560006  RH  070%=      5-min Rain = 0
KPA1 162309Z 36018G23KT 06/01 A3008 RMK A01 T00570007  RH  070%=      5-min Rain = 0
KPA1 162310Z 00016KT 06/01 A3008 RMK A01 T00570007  RH  071%=      5-min Rain = 0
KPA1 162311Z 35016KT 06/01 A3007 RMK A01 T00570008  RH  071%=      5-min Rain = 0
KPA1 162312Z 35016KT 06/01 A3008 RMK A01 T00570008  RH  071%=      5-min Rain = 0
KPA1 162313Z 36015KT 06/01 A3008 RMK A01 T00560008  RH  071%=      5-min Rain = 0
KPA1 162314Z 35017KT 06/01 A3007 RMK A01 T00570008  RH  071%=      5-min Rain = 0
KPA1 162315Z 36021KT 06/01 A3007 RMK A01 T00560007  RH  070%=      5-min Rain = 0
KPA1 162316Z 36019KT 06/01 A3008 RMK A01 T00560006  RH  070%=      5-min Rain = 0
KPA1 162317Z 36020KT 06/01 A3008 RMK A01 T00550005  RH  070%=      5-min Rain = 0
KPA1 162318Z 35017KT 06/01 A3008 RMK A01 T00550005  RH  070%=      5-min Rain = 0
KPA1 162319Z 36017G27KT 06/01 A3008 RMK A01 T00550006  RH  071%=      5-min Rain = 0
KPA1 162320Z 00023KT 06/01 A3008 RMK A01 T00560005  RH  070%=      5-min Rain = 0
KPA1 162321Z 36019KT 06/00 A3008 RMK A01 T00550004  RH  070%=      5-min Rain = 0
KPA1 162322Z 00019KT 06/01 A3008 RMK A01 T00550005  RH  070%=      5-min Rain = 0
KPA1 162323Z 36018G23KT 06/01 A3008 RMK A01 T00550005  RH  070%=      5-min Rain = 0
KPA1 162324Z 36018KT 06/01 A3008 RMK A01 T00570006  RH  070%=      5-min Rain = 0
KPA1 162325Z 36016G21KT 06/01 A3008 RMK A01 T00580007  RH  069%=      5-min Rain = 0
KPA1 162326Z 36014KT 06/01 A3008 RMK A01 T00590007  RH  069%=      5-min Rain = 0
KPA1 162327Z 35017KT 06/01 A3008 RMK A01 T00600007  RH  069%=      5-min Rain = 0
KPA1 162328Z 00017G22KT 06/01 A3008 RMK A01 T00610006  RH  068%=      5-min Rain = 0
KPA1 162329Z 35014KT 06/01 A3008 RMK A01 T00610006  RH  068%=      5-min Rain = 0
KPA1 162330Z 35014KT 06/01 A3008 RMK A01 T00600006  RH  068%=      5-min Rain = 0
KPA1 162331Z 01017KT 06/01 A3008 RMK A01 T00600006  RH  068%=      5-min Rain = 0
KPA1 162332Z 01015KT 06/01 A3008 RMK A01 T00590005  RH  068%=      5-min Rain = 0
KPA1 162333Z 00013G21KT 06/01 A3008 RMK A01 T00580006  RH  069%=      5-min Rain = 0
KPA1 162334Z 00020KT 06/01 A3008 RMK A01 T00580006  RH  069%=      5-min Rain = 0
KPA1 162335Z 00016KT 06/01 A3008 RMK A01 T00590005  RH  069%=      5-min Rain = 0
KPA1 162336Z 36014KT 06/01 A3008 RMK A01 T00590006  RH  069%=      5-min Rain = 0
KPA1 162337Z 36021G26KT 06/01 A3008 RMK A01 T00600005  RH  068%=      5-min Rain = 0
KPA1 162338Z 00019KT 06/00 A3008 RMK A01 T00590002  RH  067%=      5-min Rain = 0
KPA1 162339Z 36017KT 06/00 A3008 RMK A01 T00590003  RH  068%=      5-min Rain = 0
KPA1 162340Z 35017KT 06/00 A3008 RMK A01 T00590004  RH  068%=      5-min Rain = 0
KPA1 162341Z 36017KT 06/00 A3008 RMK A01 T00580004  RH  068%=      5-min Rain = 0
KPA1 162342Z 00018KT 06/01 A3008 RMK A01 T00580005  RH  069%=      5-min Rain = 0
KPA1 162343Z 00016G22KT 06/00 A3009 RMK A01 T00580004  RH  068%=      5-min Rain = 0
KPA1 162344Z 00017G22KT 06/01 A3008 RMK A01 T00580005  RH  069%=      5-min Rain = 0
KPA1 162345Z 00021KT 06/00 A3009 RMK A01 T00590004  RH  068%=      5-min Rain = 0
KPA1 162346Z 00019KT 06/00 A3009 RMK A01 T00590003  RH  067%=      5-min Rain = 0
KPA1 162347Z 00021G27KT 06/00 A3009 RMK A01 T00590002  RH  067%=      5-min Rain = 0
KPA1 162348Z 36019KT 06/00 A3009 RMK A01 T00590002  RH  067%=      5-min Rain = 0
KPA1 162349Z 36016KT 06/00 A3009 RMK A01 T00590002  RH  067%=      5-min Rain = 0
KPA1 162350Z 36016KT 06/00 A3009 RMK A01 T00590002  RH  067%=      5-min Rain = 0
KPA1 162351Z 00016KT 06/00 A3009 RMK A01 T00590002  RH  067%=      5-min Rain = 0
KPA1 162352Z 00015KT 06/00 A3009 RMK A01 T00590003  RH  067%=      5-min Rain = 0
KPA1 162353Z 36015KT 06/01 A3009 RMK A01 T00610005  RH  067%=      5-min Rain = 0
KPA1 162354Z 00015G20KT 06/01 A3009 RMK A01 T00620005  RH  067%=      5-min Rain = 0
KPA1 162355Z 35013KT 06/01 A3009 RMK A01 T00620005  RH  067%=      5-min Rain = 0
KPA1 162356Z 36015G21KT 06/01 A3009 RMK A01 T00620005  RH  067%=      5-min Rain = 0
KPA1 162357Z 01016G21KT 06/01 A3009 RMK A01 T00620005  RH  067%=      5-min Rain = 0
KPA1 162358Z 36016G22KT 06/01 A3009 RMK A01 T00620005  RH  067%=      5-min Rain = 0
KPA1 162359Z 36018G23KT 06/00 A3009 RMK A01 T00620004  RH  066%=      5-min Rain = 0
KPA1 170000Z 01019G24KT 06/00 A3009 RMK A01 T00610003  RH  066%=      5-min Rain = 0
KPA1 170001Z 00018KT 06/00 A3009 RMK A01 T00610002  RH  066%=      5-min Rain = 0
KPA1 170002Z 35018KT 06/00 A3009 RMK A01 T00600002  RH  066%=      5-min Rain = 0
KPA1 170003Z 00021KT 06/00 A3009 RMK A01 T00600002  RH  066%=      5-min Rain = 0
KPA1 170004Z 36017KT 06/00 A3009 RMK A01 T00590001  RH  066%=      5-min Rain = 0
KPA1 170005Z 36016KT 06/00 A3009 RMK A01 T00590002  RH  067%=      5-min Rain = 0
KPA1 170006Z 35018KT 06/00 A3009 RMK A01 T00590002  RH  067%=      5-min Rain = 0
KPA1 170007Z 36018KT 06/00 A3009 RMK A01 T00580001  RH  067%=      5-min Rain = 0
KPA1 170008Z 00018G23KT 06/00 A3009 RMK A01 T00580001  RH  067%=      5-min Rain = 0
KPA1 170009Z 00018G23KT 06/00 A3009 RMK A01 T00580001  RH  067%=      5-min Rain = 0
KPA1 170010Z 00018KT 06/00 A3009 RMK A01 T00570001  RH  067%=      5-min Rain = 0
KPA1 170011Z 01016G21KT 06/00 A3009 RMK A01 T00570002  RH  068%=      5-min Rain = 0
KPA1 170012Z 00014KT 06/00 A3009 RMK A01 T00570002  RH  068%=      5-min Rain = 0
KPA1 170013Z 01013KT 06/00 A3009 RMK A01 T00560002  RH  068%=      5-min Rain = 0
KPA1 170014Z 00016KT 06/00 A3009 RMK A01 T00560003  RH  069%=      5-min Rain = 0
KPA1 170015Z 01015KT 06/00 A3009 RMK A01 T00570002  RH  068%=      5-min Rain = 0
KPA1 170016Z 01015KT 06/00 A3009 RMK A01 T00570003  RH  068%=      5-min Rain = 0
KPA1 170017Z 01015KT 06/00 A3009 RMK A01 T00570003  RH  068%=      5-min Rain = 0
KPA1 170018Z 01018KT 06/00 A301 RMK A01 T00580004  RH  068%=      5-min Rain = 0
KPA1 170019Z 01016KT 06/00 A301 RMK A01 T00580004  RH  068%=      5-min Rain = 0
KPA1 170020Z 01017KT 06/00 A301 RMK A01 T00580004  RH  068%=      5-min Rain = 0
KPA1 170021Z 00016KT 06/00 A301 RMK A01 T00580004  RH  068%=      5-min Rain = 0
KPA1 170022Z 00017KT 06/00 A301 RMK A01 T00580003  RH  068%=      5-min Rain = 0
KPA1 170023Z 36014KT 06/00 A301 RMK A01 T00580003  RH  068%=      5-min Rain = 0
KPA1 170024Z 00015KT 06/00 A301 RMK A01 T00580003  RH  068%=      5-min Rain = 0
KPA1 170025Z 01017KT 06/00 A301 RMK A01 T00580003  RH  068%=      5-min Rain = 0
KPA1 170026Z 01017KT 06/00 A301 RMK A01 T00580003  RH  068%=      5-min Rain = 0
KPA1 170027Z 36014KT 06/00 A301 RMK A01 T00580003  RH  068%=      5-min Rain = 0
KPA1 170028Z 36015KT 06/00 A301 RMK A01 T00580003  RH  068%=      5-min Rain = 0
KPA1 170029Z 35016KT 06/00 A301 RMK A01 T00580004  RH  068%=      5-min Rain = 0
KPA1 170030Z 36015G20KT 06/00 A301 RMK A01 T00570003  RH  068%=      5-min Rain = 0
KPA1 170031Z 01014KT 06/00 A301 RMK A01 T00570003  RH  068%=      5-min Rain = 0
KPA1 170032Z 01015KT 06/00 A301 RMK A01 T00570003  RH  068%=      5-min Rain = 0
KPA1 170033Z 01015KT 06/00 A301 RMK A01 T00570003  RH  068%=      5-min Rain = 0
KPA1 170034Z 01014G20KT 06/00 A301 RMK A01 T00580004  RH  068%=      5-min Rain = 0
KPA1 170035Z 01016KT 06/00 A301 RMK A01 T00580004  RH  068%=      5-min Rain = 0
KPA1 170036Z 01014KT 06/00 A301 RMK A01 T00580004  RH  068%=      5-min Rain = 0
KPA1 170037Z 01017KT 06/00 A301 RMK A01 T00580004  RH  068%=      5-min Rain = 0
KPA1 170038Z 36017KT 06/00 A301 RMK A01 T00580003  RH  068%=      5-min Rain = 0
KPA1 170039Z 01017KT 06/00 A301 RMK A01 T00570002  RH  068%=      5-min Rain = 0
KPA1 170040Z 01018G23KT 06/00 A301 RMK A01 T00570002  RH  068%=      5-min Rain = 0
KPA1 170041Z 01016KT 06/00 A301 RMK A01 T00570002  RH  068%=      5-min Rain = 0
KPA1 170042Z 01014KT 06/00 A301 RMK A01 T00560002  RH  068%=      5-min Rain = 0
KPA1 170043Z 00012KT 06/00 A301 RMK A01 T00560003  RH  069%=      5-min Rain = 0
KPA1 170044Z 36011KT 06/00 A301 RMK A01 T00560003  RH  069%=      5-min Rain = 0
KPA1 170045Z 36011KT 06/00 A301 RMK A01 T00550003  RH  069%=      5-min Rain = 0
KPA1 170046Z 01013KT 06/00 A301 RMK A01 T00550004  RH  070%=      5-min Rain = 0
KPA1 170047Z 00015KT 06/00 A301 RMK A01 T00550003  RH  069%=      5-min Rain = 0
KPA1 170048Z 00014KT 06/00 A301 RMK A01 T00550003  RH  069%=      5-min Rain = 0
KPA1 170049Z 00015KT 06/00 A301 RMK A01 T00550002  RH  069%=      5-min Rain = 0
KPA1 170050Z 00013KT 06/00 A301 RMK A01 T00550002  RH  069%=      5-min Rain = 0
KPA1 170051Z 00012KT 06/00 A301 RMK A01 T00550003  RH  069%=      5-min Rain = 0
KPA1 170052Z 36012KT 06/00 A301 RMK A01 T00550003  RH  069%=      5-min Rain = 0
KPA1 170053Z 36012KT 05/00 A301 RMK A01 T00540003  RH  070%=      5-min Rain = 0
KPA1 170054Z 36012KT 05/00 A301 RMK A01 T00540003  RH  070%=      5-min Rain = 0
KPA1 170055Z 36012KT 05/00 A301 RMK A01 T00540003  RH  070%=      5-min Rain = 0
KPA1 170056Z 36013KT 05/00 A301 RMK A01 T00540003  RH  070%=      5-min Rain = 0
KPA1 170057Z 36012KT 05/00 A301 RMK A01 T00540003  RH  070%=      5-min Rain = 0
KPA1 170058Z 36012KT 05/00 A301 RMK A01 T00540003  RH  070%=      5-min Rain = 0
KPA1 170059Z 36012KT 05/00 A301 RMK A01 T00540003  RH  070%=      5-min Rain = 0
KPA1 170100Z 36012KT 05/00 A301 RMK A01 T00540003  RH  070%=      5-min Rain = 0
KPA1 170101Z 35013KT 05/00 A301 RMK A01 T00540004  RH  070%=      5-min Rain = 0
KPA1 170102Z 36012KT 05/00 A301 RMK A01 T00540003  RH  070%=      5-min Rain = 0
KPA1 170103Z 36010KT 05/00 A301 RMK A01 T00540003  RH  070%=      5-min Rain = 0
KPA1 170104Z 36010G15KT 05/00 A301 RMK A01 T00530004  RH  071%=      5-min Rain = 0
KPA1 170105Z 36012KT 05/00 A301 RMK A01 T00520004  RH  071%=      5-min Rain = 0
KPA1 170106Z 36012KT 05/00 A301 RMK A01 T00520003  RH  071%=      5-min Rain = 0
KPA1 170107Z 36013KT 05/00 A301 RMK A01 T00520003  RH  071%=      5-min Rain = 0
KPA1 170108Z 36012KT 05/00 A301 RMK A01 T00520003  RH  070%=      5-min Rain = 0
KPA1 170109Z 36013KT 05/00 A301 RMK A01 T00520003  RH  070%=      5-min Rain = 0
KPA1 170110Z 00012KT 05/00 A301 RMK A01 T00520002  RH  070%=      5-min Rain = 0
KPA1 170111Z 00011KT 05/00 A301 RMK A01 T00530002  RH  070%=      5-min Rain = 0
KPA1 170112Z 00014KT 05/00 A301 RMK A01 T00520002  RH  070%=      5-min Rain = 0
KPA1 170113Z 00014KT 05/00 A301 RMK A01 T00520000  RH  069%=      5-min Rain = 0
KPA1 170114Z 36013KT 05/00 A301 RMK A01 T005200-0  RH  069%=      5-min Rain = 0
KPA1 170115Z 36013KT 05/00 A301 RMK A01 T005200-0  RH  069%=      5-min Rain = 0
KPA1 170116Z 00013G18KT 05/00 A301 RMK A01 T005100-0  RH  070%=      5-min Rain = 0
KPA1 170117Z 36014KT 05/00 A301 RMK A01 T005000-0  RH  070%=      5-min Rain = 0
KPA1 170118Z 36013KT 05/00 A301 RMK A01 T005000-0  RH  070%=      5-min Rain = 0
KPA1 170119Z 00012KT 05/00 A301 RMK A01 T00500000  RH  070%=      5-min Rain = 0
KPA1 170120Z 36014KT 05/00 A301 RMK A01 T00500000  RH  070%=      5-min Rain = 0
KPA1 170121Z 36012KT 05/00 A301 RMK A01 T00500000  RH  070%=      5-min Rain = 0
KPA1 170122Z 36012KT 05/00 A301 RMK A01 T00500000  RH  070%=      5-min Rain = 0
KPA1 170123Z 36013KT 05/00 A301 RMK A01 T00490000  RH  071%=      5-min Rain = 0
KPA1 170124Z 00013KT 05/00 A301 RMK A01 T004900-0  RH  071%=      5-min Rain = 0
KPA1 170125Z 36011KT 05/00 A301 RMK A01 T004900-0  RH  070%=      5-min Rain = 0
KPA1 170126Z 36011KT 05/00 A301 RMK A01 T00490000  RH  071%=      5-min Rain = 0
KPA1 170127Z 36013KT 05/00 A301 RMK A01 T004800-0  RH  071%=      5-min Rain = 0
KPA1 170128Z 36013KT 05/00 A301 RMK A01 T004900-0  RH  071%=      5-min Rain = 0
KPA1 170129Z 36013KT 05/M00 A3011 RMK A01 T00491001  RH  070%=      5-min Rain = 0
KPA1 170130Z 36012KT 05/00 A3011 RMK A01 T004900-0  RH  070%=      5-min Rain = 0
KPA1 170131Z 00014KT 05/M00 A3011 RMK A01 T00481001  RH  070%=      5-min Rain = 0
KPA1 170132Z 36014KT 05/M00 A3011 RMK A01 T00481002  RH  070%=      5-min Rain = 0
KPA1 170133Z 36014KT 05/M00 A3011 RMK A01 T00481003  RH  069%=      5-min Rain = 0
KPA1 170134Z 36013KT 05/M00 A3011 RMK A01 T00481003  RH  069%=      5-min Rain = 0
KPA1 170135Z 36013KT 05/M00 A3011 RMK A01 T00481003  RH  069%=      5-min Rain = 0
KPA1 170136Z 36012KT 05/M00 A3011 RMK A01 T00481004  RH  069%=      5-min Rain = 0
KPA1 170137Z 36013KT 05/M00 A3011 RMK A01 T00471004  RH  069%=      5-min Rain = 0
KPA1 170138Z 36011KT 05/M00 A3011 RMK A01 T00471004  RH  070%=      5-min Rain = 0
KPA1 170139Z 36012KT 05/M00 A3011 RMK A01 T00461004  RH  070%=      5-min Rain = 0
KPA1 170140Z 00013KT 05/M00 A3011 RMK A01 T00471003  RH  070%=      5-min Rain = 0
KPA1 170141Z 00011KT 05/M00 A3011 RMK A01 T00461004  RH  070%=      5-min Rain = 0
KPA1 170142Z 36012KT 05/M00 A3011 RMK A01 T00471003  RH  070%=      5-min Rain = 0
KPA1 170143Z 36011KT 05/M00 A3011 RMK A01 T00461003  RH  070%=      5-min Rain = 0
KPA1 170144Z 00011KT 05/M00 A3011 RMK A01 T00451003  RH  071%=      5-min Rain = 0
KPA1 170145Z 00011KT 04/M00 A3011 RMK A01 T00441003  RH  071%=      5-min Rain = 0
KPA1 170146Z 00012KT 04/M00 A3011 RMK A01 T00441003  RH  071%=      5-min Rain = 0
KPA1 170147Z 00013KT 04/M00 A3011 RMK A01 T00441003  RH  071%=      5-min Rain = 0
KPA1 170148Z 00014KT 04/M00 A3011 RMK A01 T00441003  RH  071%=      5-min Rain = 0
KPA1 170149Z 00012KT 04/M00 A3011 RMK A01 T00441002  RH  072%=      5-min Rain = 0
KPA1 170150Z 01013KT 04/M00 A3011 RMK A01 T00441003  RH  072%=      5-min Rain = 0
KPA1 170151Z 01012KT 04/M00 A3011 RMK A01 T00441002  RH  072%=      5-min Rain = 0
KPA1 170152Z 00011KT 04/M00 A3011 RMK A01 T00431002  RH  072%=      5-min Rain = 0
KPA1 170153Z 00012KT 04/M00 A3011 RMK A01 T00421002  RH  073%=      5-min Rain = 0
KPA1 170154Z 00012KT 04/M00 A3011 RMK A01 T00421002  RH  073%=      5-min Rain = 0
KPA1 170155Z 00012KT 04/M00 A3011 RMK A01 T00421002  RH  073%=      5-min Rain = 0
KPA1 170156Z 36014KT 04/M00 A3011 RMK A01 T00421002  RH  073%=      5-min Rain = 0
KPA1 170157Z 00013KT 04/M00 A3011 RMK A01 T00421002  RH  073%=      5-min Rain = 0
KPA1 170158Z 00012KT 04/M00 A3011 RMK A01 T00421001  RH  073%=      5-min Rain = 0
KPA1 170159Z 00012KT 04/M00 A3011 RMK A01 T00421001  RH  074%=      5-min Rain = 0
KPA1 170200Z 36012KT 04/M00 A3011 RMK A01 T00411001  RH  074%=      5-min Rain = 0
KPA1 170201Z 00013KT 04/M00 A3011 RMK A01 T00421001  RH  074%=      5-min Rain = 0
KPA1 170202Z 00011KT 04/00 A3011 RMK A01 T004200-0  RH  074%=      5-min Rain = 0
KPA1 170203Z 36012KT 04/M00 A3011 RMK A01 T00421001  RH  074%=      5-min Rain = 0
KPA1 170204Z 00011KT 04/M00 A3011 RMK A01 T00421001  RH  074%=      5-min Rain = 0
KPA1 170205Z 00013KT 04/M00 A3012 RMK A01 T00421001  RH  074%=      5-min Rain = 0
KPA1 170206Z 36012KT 04/00 A3011 RMK A01 T004200-0  RH  074%=      5-min Rain = 0
KPA1 170207Z 36012KT 04/00 A3012 RMK A01 T004300-0  RH  074%=      5-min Rain = 0
KPA1 170208Z 36012KT 04/00 A3012 RMK A01 T004200-0  RH  074%=      5-min Rain = 0
KPA1 170209Z 00013KT 04/00 A3012 RMK A01 T004200-0  RH  074%=      5-min Rain = 0
KPA1 170210Z 36013KT 04/00 A3012 RMK A01 T00410000  RH  074%=      5-min Rain = 0
KPA1 170211Z 36013KT 04/00 A3012 RMK A01 T00410000  RH  075%=      5-min Rain = 0
KPA1 170212Z 00014KT 04/00 A3012 RMK A01 T00410000  RH  075%=      5-min Rain = 0
KPA1 170213Z 36013KT 04/00 A3012 RMK A01 T00410000  RH  075%=      5-min Rain = 0
KPA1 170214Z 00014KT 04/00 A3012 RMK A01 T00410000  RH  075%=      5-min Rain = 0
KPA1 170215Z 36012KT 04/00 A3011 RMK A01 T00410000  RH  075%=      5-min Rain = 0
KPA1 170216Z 35014KT 04/00 A3011 RMK A01 T00410000  RH  075%=      5-min Rain = 0
KPA1 170217Z 36013KT 04/00 A3012 RMK A01 T00420001  RH  075%=      5-min Rain = 0
KPA1 170218Z 36013KT 04/00 A3012 RMK A01 T00410001  RH  075%=      5-min Rain = 0
KPA1 170219Z 36013KT 04/00 A3012 RMK A01 T00410001  RH  075%=      5-min Rain = 0
KPA1 170220Z 36014G19KT 04/00 A3012 RMK A01 T00410001  RH  075%=      5-min Rain = 0
KPA1 170221Z 36014KT 04/00 A3012 RMK A01 T00410000  RH  075%=      5-min Rain = 0
KPA1 170222Z 36012KT 04/00 A3012 RMK A01 T00410000  RH  075%=      5-min Rain = 0
KPA1 170223Z 36014KT 04/00 A3012 RMK A01 T00410001  RH  075%=      5-min Rain = 0
KPA1 170224Z 36012KT 04/00 A3012 RMK A01 T00410001  RH  075%=      5-min Rain = 0
KPA1 170225Z 36013KT 04/00 A3012 RMK A01 T00400001  RH  075%=      5-min Rain = 0
KPA1 170226Z 36014KT 04/00 A3012 RMK A01 T00400001  RH  076%=      5-min Rain = 0
KPA1 170227Z 36015KT 04/00 A3012 RMK A01 T00400001  RH  076%=      5-min Rain = 0
KPA1 170228Z 36013KT 04/00 A3012 RMK A01 T00400001  RH  076%=      5-min Rain = 0
KPA1 170229Z 00014KT 04/00 A3012 RMK A01 T00400001  RH  076%=      5-min Rain = 0
KPA1 170230Z 00013KT 04/00 A3012 RMK A01 T00400001  RH  076%=      5-min Rain = 0
KPA1 170231Z 00013KT 04/00 A3012 RMK A01 T00390001  RH  076%=      5-min Rain = 0
KPA1 170232Z 36013KT 04/00 A3012 RMK A01 T00390001  RH  076%=      5-min Rain = 0
KPA1 170233Z 00013KT 04/00 A3012 RMK A01 T00390001  RH  076%=      5-min Rain = 0
KPA1 170234Z 36015KT 04/00 A3012 RMK A01 T00390001  RH  076%=      5-min Rain = 0
KPA1 170235Z 00015KT 04/00 A3012 RMK A01 T00400001  RH  076%=      5-min Rain = 0
KPA1 170236Z 36014KT 04/00 A3012 RMK A01 T00400001  RH  076%=      5-min Rain = 0
KPA1 170237Z 36012KT 04/00 A3012 RMK A01 T00390001  RH  076%=      5-min Rain = 0
KPA1 170238Z 36013KT 04/00 A3012 RMK A01 T00390001  RH  076%=      5-min Rain = 0
KPA1 170239Z 36011KT 04/00 A3012 RMK A01 T00380001  RH  076%=      5-min Rain = 0
KPA1 170240Z 36011KT 04/00 A3012 RMK A01 T00380001  RH  077%=      5-min Rain = 0
KPA1 170241Z 36011G16KT 04/00 A3012 RMK A01 T00370001  RH  077%=      5-min Rain = 0
KPA1 170242Z 00013KT 04/00 A3012 RMK A01 T00360001  RH  077%=      5-min Rain = 0
KPA1 170243Z 00014KT 04/00 A3012 RMK A01 T00370001  RH  077%=      5-min Rain = 0
KPA1 170244Z 00014KT 04/00 A3012 RMK A01 T00370001  RH  077%=      5-min Rain = 0
KPA1 170245Z 00013KT 04/00 A3012 RMK A01 T00380001  RH  077%=      5-min Rain = 0
KPA1 170246Z 00014KT 04/00 A3012 RMK A01 T00380000  RH  076%=      5-min Rain = 0
KPA1 170247Z 00012G17KT 04/00 A3012 RMK A01 T00390001  RH  076%=      5-min Rain = 0
KPA1 170248Z 00013KT 04/00 A3013 RMK A01 T00390000  RH  076%=      5-min Rain = 0
KPA1 170249Z 00012KT 04/00 A3013 RMK A01 T00390000  RH  076%=      5-min Rain = 0
KPA1 170250Z 00013KT 04/00 A3013 RMK A01 T003900-0  RH  076%=      5-min Rain = 0
KPA1 170251Z 00011KT 04/00 A3013 RMK A01 T003800-0  RH  076%=      5-min Rain = 0
KPA1 170252Z 36012KT 04/00 A3013 RMK A01 T003800-0  RH  076%=      5-min Rain = 0
KPA1 170253Z 36013KT 04/M00 A3013 RMK A01 T00371001  RH  076%=      5-min Rain = 0
KPA1 170254Z 01012KT 04/M00 A3013 RMK A01 T00371001  RH  076%=      5-min Rain = 0
KPA1 170255Z 00011KT 04/M00 A3013 RMK A01 T00371001  RH  076%=      5-min Rain = 0
KPA1 170256Z 00012KT 04/M00 A3013 RMK A01 T00371001  RH  076%=      5-min Rain = 0
KPA1 170257Z 00013KT 04/M00 A3013 RMK A01 T00371001  RH  076%=      5-min Rain = 0
KPA1 170258Z 00013KT 04/M00 A3014 RMK A01 T00371002  RH  076%=      5-min Rain = 0
KPA1 170259Z 00013KT 04/M00 A3014 RMK A01 T00371002  RH  076%=      5-min Rain = 0
KPA1 170300Z 00012KT 04/M00 A3014 RMK A01 T00381002  RH  075%=      5-min Rain = 0
KPA1 170301Z 00011KT 04/M00 A3014 RMK A01 T00381002  RH  075%=      5-min Rain = 0
KPA1 170302Z 36010KT 04/M00 A3014 RMK A01 T00381002  RH  075%=      5-min Rain = 0
KPA1 170303Z 36011KT 04/M00 A3014 RMK A01 T00381002  RH  075%=      5-min Rain = 0
KPA1 170304Z 00009KT 04/M00 A3015 RMK A01 T00381002  RH  075%=      5-min Rain = 0
KPA1 170305Z 00010KT 04/M00 A3015 RMK A01 T00381002  RH  075%=      5-min Rain = 0
KPA1 170306Z 36009KT 04/M00 A3015 RMK A01 T00381003  RH  075%=      5-min Rain = 0
KPA1 170307Z 00010KT 04/M00 A3016 RMK A01 T00381003  RH  075%=      5-min Rain = 0
KPA1 170308Z 35010KT 04/M00 A3016 RMK A01 T00381003  RH  075%=      5-min Rain = 0
KPA1 170309Z 35009KT 04/M00 A3016 RMK A01 T00381003  RH  075%=      5-min Rain = 0
KPA1 170310Z 35009KT 04/M00 A3017 RMK A01 T00381003  RH  075%=      5-min Rain = 0
KPA1 170311Z 34008KT 04/M00 A3017 RMK A01 T00381003  RH  074%=      5-min Rain = 0
KPA1 170312Z 35007KT 04/M00 A3017 RMK A01 T00391003  RH  074%=      5-min Rain = 0
KPA1 170313Z 35008KT 04/M00 A3017 RMK A01 T00391003  RH  074%=      5-min Rain = 0
KPA1 170314Z 34007KT 04/M00 A3017 RMK A01 T00391003  RH  074%=      5-min Rain = 0
KPA1 170315Z 34006KT 04/M00 A3017 RMK A01 T00381003  RH  074%=      5-min Rain = 0
KPA1 170316Z 34006KT 04/M00 A3017 RMK A01 T00381003  RH  075%=      5-min Rain = 0
KPA1 170317Z 34007KT 04/M00 A3017 RMK A01 T00371003  RH  075%=      5-min Rain = 0
KPA1 170318Z 34006KT 04/M00 A3017 RMK A01 T00371003  RH  075%=      5-min Rain = 0
KPA1 170319Z 34007KT 04/M00 A3017 RMK A01 T00371003  RH  076%=      5-min Rain = 0
KPA1 170320Z 34007KT 04/M00 A3018 RMK A01 T00361003  RH  076%=      5-min Rain = 0
KPA1 170321Z 34007KT 04/M00 A3018 RMK A01 T00371002  RH  076%=      5-min Rain = 0
KPA1 170322Z 34006KT 04/M00 A3018 RMK A01 T00371002  RH  076%=      5-min Rain = 0
KPA1 170323Z 34007KT 04/M00 A3018 RMK A01 T00371002  RH  076%=      5-min Rain = 0
KPA1 170324Z 34007KT 04/M00 A3018 RMK A01 T00361002  RH  076%=      5-min Rain = 0
KPA1 170325Z 33006KT 04/M00 A3018 RMK A01 T00361002  RH  076%=      5-min Rain = 0
KPA1 170326Z 33006KT 04/M00 A3018 RMK A01 T00361002  RH  076%=      5-min Rain = 0
KPA1 170327Z 33005KT 04/M00 A3018 RMK A01 T00361002  RH  076%=      5-min Rain = 0
KPA1 170328Z 32005KT 04/M00 A3018 RMK A01 T00351002  RH  077%=      5-min Rain = 0
KPA1 170329Z 32004KT 04/M00 A3019 RMK A01 T00351002  RH  077%=      5-min Rain = 0
KPA1 170330Z 32005KT 04/M00 A3019 RMK A01 T00351002  RH  077%=      5-min Rain = 0
KPA1 170331Z 31004KT 03/M00 A3019 RMK A01 T00341002  RH  077%=      5-min Rain = 0
KPA1 170332Z 32004KT 03/M00 A3019 RMK A01 T00341002  RH  077%=      5-min Rain = 0
KPA1 170333Z 31005KT 03/M00 A3019 RMK A01 T00331003  RH  078%=      5-min Rain = 0
KPA1 170334Z 31005KT 03/M00 A3019 RMK A01 T00321003  RH  078%=      5-min Rain = 0
KPA1 170335Z 31005KT 03/M00 A3019 RMK A01 T00311003  RH  078%=      5-min Rain = 0
KPA1 170336Z 31004KT 03/M00 A3019 RMK A01 T00311003  RH  078%=      5-min Rain = 0
KPA1 170337Z 31005KT 03/M00 A3019 RMK A01 T00301003  RH  079%=      5-min Rain = 0
KPA1 170338Z 31005KT 03/M00 A3019 RMK A01 T00301003  RH  079%=      5-min Rain = 0
KPA1 170339Z 31005KT 03/M00 A3019 RMK A01 T00301003  RH  079%=      5-min Rain = 0
KPA1 170340Z 31005KT 03/M00 A3019 RMK A01 T00301003  RH  079%=      5-min Rain = 0
KPA1 170341Z 32005KT 03/M00 A3019 RMK A01 T00311003  RH  079%=      5-min Rain = 0
KPA1 170342Z 32005KT 03/M00 A3019 RMK A01 T00311003  RH  078%=      5-min Rain = 0
KPA1 170343Z 32006KT 03/M00 A3019 RMK A01 T00301003  RH  079%=      5-min Rain = 0
KPA1 170344Z 33006KT 03/M00 A3019 RMK A01 T00311003  RH  079%=      5-min Rain = 0
KPA1 170345Z 33006KT 03/M00 A3019 RMK A01 T00311003  RH  078%=      5-min Rain = 0
KPA1 170346Z 33006KT 03/M00 A3019 RMK A01 T00311003  RH  078%=      5-min Rain = 0
KPA1 170347Z 33006KT 03/M00 A3019 RMK A01 T00311003  RH  078%=      5-min Rain = 0
KPA1 170348Z 33007KT 03/M00 A3019 RMK A01 T00311003  RH  078%=      5-min Rain = 0
KPA1 170349Z 33006KT 03/M00 A3019 RMK A01 T00301003  RH  078%=      5-min Rain = 0
KPA1 170350Z 33006KT 03/M00 A3019 RMK A01 T00311003  RH  078%=      5-min Rain = 0
KPA1 170351Z 34006KT 03/M00 A3019 RMK A01 T00301003  RH  079%=      5-min Rain = 0
KPA1 170352Z 34006KT 03/M00 A3019 RMK A01 T00301003  RH  079%=      5-min Rain = 0
KPA1 170353Z 33006KT 03/M00 A3019 RMK A01 T00291003  RH  079%=      5-min Rain = 0
KPA1 170354Z 33007KT 03/M00 A3019 RMK A01 T00291003  RH  079%=      5-min Rain = 0
KPA1 170355Z 33006KT 03/M00 A3019 RMK A01 T00301003  RH  079%=      5-min Rain = 0
KPA1 170356Z 34006KT 03/M00 A3019 RMK A01 T00301003  RH  079%=      5-min Rain = 0
KPA1 170357Z 34007KT 03/M00 A3019 RMK A01 T00311003  RH  079%=      5-min Rain = 0
KPA1 170358Z 34007KT 03/M00 A3019 RMK A01 T00311003  RH  078%=      5-min Rain = 0
KPA1 170359Z 34007KT 03/M00 A3019 RMK A01 T00321003  RH  078%=      5-min Rain = 0
KPA1 170400Z 34007KT 03/M00 A3019 RMK A01 T00321003  RH  077%=      5-min Rain = 0
KPA1 170401Z 34008KT 03/M00 A3019 RMK A01 T00321003  RH  078%=      5-min Rain = 0
KPA1 170402Z 34008KT 03/M00 A3019 RMK A01 T00321003  RH  078%=      5-min Rain = 0
KPA1 170403Z 34009KT 03/M00 A3019 RMK A01 T00321003  RH  077%=      5-min Rain = 0
KPA1 170404Z 35008KT 03/M00 A3019 RMK A01 T00331004  RH  077%=      5-min Rain = 0
KPA1 170405Z 34009KT 03/M00 A3019 RMK A01 T00331004  RH  077%=      5-min Rain = 0
KPA1 170406Z 34010KT 03/M00 A3019 RMK A01 T00341004  RH  076%=      5-min Rain = 0
KPA1 170407Z 34009KT 03/M00 A3019 RMK A01 T00341004  RH  076%=      5-min Rain = 0
KPA1 170408Z 34009KT 03/M01 A3019 RMK A01 T00341005  RH  076%=      5-min Rain = 0
KPA1 170409Z 34009KT 04/M00 A3019 RMK A01 T00351004  RH  076%=      5-min Rain = 0
KPA1 170410Z 34010KT 04/M00 A3019 RMK A01 T00351004  RH  076%=      5-min Rain = 0
KPA1 170411Z 34008KT 03/M00 A3019 RMK A01 T00341004  RH  076%=      5-min Rain = 0
KPA1 170412Z 34010KT 04/M00 A3019 RMK A01 T00351004  RH  076%=      5-min Rain = 0
KPA1 170413Z 34008KT 04/M01 A3019 RMK A01 T00351005  RH  075%=      5-min Rain = 0
KPA1 170414Z 34008KT 03/M01 A3019 RMK A01 T00341005  RH  076%=      5-min Rain = 0
KPA1 170415Z 34009KT 03/M01 A3019 RMK A01 T00341005  RH  075%=      5-min Rain = 0
KPA1 170416Z 34008KT 03/M01 A3019 RMK A01 T00341006  RH  075%=      5-min Rain = 0
KPA1 170417Z 34008KT 03/M01 A3019 RMK A01 T00341006  RH  075%=      5-min Rain = 0
KPA1 170418Z 34010KT 03/M01 A3019 RMK A01 T00341006  RH  075%=      5-min Rain = 0
KPA1 170419Z 34008KT 03/M01 A3019 RMK A01 T00341006  RH  075%=      5-min Rain = 0
KPA1 170420Z 34008KT 03/M01 A3019 RMK A01 T00341006  RH  075%=      5-min Rain = 0
KPA1 170421Z 34009KT 03/M01 A3019 RMK A01 T00341007  RH  075%=      5-min Rain = 0
KPA1 170422Z 33008KT 03/M01 A3019 RMK A01 T00341007  RH  074%=      5-min Rain = 0
KPA1 170423Z 33007KT 03/M01 A3019 RMK A01 T00341007  RH  075%=      5-min Rain = 0
KPA1 170424Z 33008KT 03/M01 A3019 RMK A01 T00341007  RH  075%=      5-min Rain = 0
KPA1 170425Z 33007KT 03/M01 A3019 RMK A01 T00341007  RH  075%=      5-min Rain = 0
KPA1 170426Z 33007KT 03/M01 A3019 RMK A01 T00341007  RH  075%=      5-min Rain = 0
KPA1 170427Z 34008KT 03/M01 A3019 RMK A01 T00331007  RH  075%=      5-min Rain = 0
KPA1 170428Z 34008KT 03/M01 A3019 RMK A01 T00321007  RH  075%=      5-min Rain = 0
KPA1 170429Z 33008KT 03/M01 A3019 RMK A01 T00331007  RH  075%=      5-min Rain = 0
KPA1 170430Z 34008KT 03/M01 A3019 RMK A01 T00331007  RH  075%=      5-min Rain = 0
KPA1 170431Z 34008KT 03/M01 A3019 RMK A01 T00321007  RH  075%=      5-min Rain = 0
KPA1 170432Z 34008KT 03/M01 A3019 RMK A01 T00311007  RH  076%=      5-min Rain = 0
KPA1 170433Z 33008KT 03/M01 A3019 RMK A01 T00311007  RH  076%=      5-min Rain = 0
KPA1 170434Z 34008KT 03/M01 A3019 RMK A01 T00301007  RH  076%=      5-min Rain = 0
KPA1 170435Z 34010KT 03/M01 A3018 RMK A01 T00311008  RH  076%=      5-min Rain = 0
KPA1 170436Z 34010KT 03/M01 A3018 RMK A01 T00311008  RH  075%=      5-min Rain = 0
KPA1 170437Z 34009KT 03/M01 A3018 RMK A01 T00321008  RH  075%=      5-min Rain = 0
KPA1 170438Z 34009KT 03/M01 A3018 RMK A01 T00321008  RH  075%=      5-min Rain = 0
KPA1 170439Z 34010KT 03/M01 A3018 RMK A01 T00321008  RH  075%=      5-min Rain = 0
KPA1 170440Z 34010KT 03/M01 A3018 RMK A01 T00321008  RH  075%=      5-min Rain = 0
KPA1 170441Z 34010KT 03/M01 A3018 RMK A01 T00311009  RH  075%=      5-min Rain = 0
KPA1 170442Z 34011KT 03/M01 A3018 RMK A01 T00311009  RH  075%=      5-min Rain = 0
KPA1 170443Z 34010KT 03/M01 A3018 RMK A01 T00311009  RH  075%=      5-min Rain = 0
KPA1 170444Z 34011KT 03/M01 A3018 RMK A01 T00311009  RH  075%=      5-min Rain = 0
KPA1 170445Z 34010KT 03/M01 A3018 RMK A01 T00311009  RH  075%=      5-min Rain = 0
KPA1 170446Z 34010KT 03/M01 A3018 RMK A01 T00311009  RH  075%=      5-min Rain = 0
KPA1 170447Z 34010KT 03/M01 A3018 RMK A01 T00311009  RH  075%=      5-min Rain = 0
KPA1 170448Z 34011KT 03/M01 A3018 RMK A01 T00301009  RH  075%=      5-min Rain = 0
KPA1 170449Z 35011KT 03/M01 A3018 RMK A01 T00301009  RH  075%=      5-min Rain = 0
KPA1 170450Z 34011KT 03/M01 A3018 RMK A01 T00301009  RH  075%=      5-min Rain = 0
KPA1 170451Z 34012KT 03/M01 A3018 RMK A01 T00301010  RH  075%=      5-min Rain = 0
KPA1 170452Z 34011KT 03/M01 A3018 RMK A01 T00301010  RH  075%=      5-min Rain = 0
KPA1 170453Z 34011KT 03/M01 A3018 RMK A01 T00301010  RH  075%=      5-min Rain = 0
KPA1 170454Z 34011KT 03/M01 A3018 RMK A01 T00291010  RH  076%=      5-min Rain = 0
KPA1 170455Z 34012KT 03/M01 A3018 RMK A01 T00291010  RH  076%=      5-min Rain = 0
KPA1 170456Z 34011KT 03/M01 A3018 RMK A01 T00291010  RH  076%=      5-min Rain = 0
KPA1 170457Z 34012KT 03/M01 A3017 RMK A01 T00291010  RH  075%=      5-min Rain = 0
KPA1 170458Z 34011KT 03/M01 A3017 RMK A01 T00291010  RH  075%=      5-min Rain = 0
KPA1 170459Z 35011KT 03/M01 A3017 RMK A01 T00291010  RH  076%=      5-min Rain = 0

Page generated in 0.0641 seconds.